<?xml version="1.0" encoding="UTF-8" standalone="no" ?>
<gpx xmlns="http://www.topografix.com/GPX/1/1" xmlns:xsi="http://www.w3.org/2001/XMLSchema-instance" xsi:schemaLocation="http://www.topografix.com/GPX/1/1 http://www.topografix.com/GPX/1/1/gpx.xsd" version="1.1" creator="VisuGPX - https://www.visugpx.com">
  <metadata>
    <name>Minitrail des Balcons de la Drôme</name>
    <desc><![CDATA[Les nouveaux Balcons sont arrivés ! L\' Envolée, \"sage\" petite course de montagne, grandit et devient Trail, proposant 2 parcours empruntant chemins et sentiers de Piégros-La-Clastre, dominant la vallée de la Drôme.
]]></desc>
  </metadata>
  <trk>
    <name><![CDATA[SportyPalTrack]]></name>
    <desc><![CDATA[The track description]]></desc>
    <trkseg>
      <trkpt lat="44.69929" lon="5.0976">
        <ele>232.6939126427</ele>
        <time>2012-10-03T09:05:38Z</time>
      </trkpt>
      <trkpt lat="44.69929" lon="5.09761">
        <ele>232.52435384256</ele>
        <time>2012-10-03T09:05:44Z</time>
      </trkpt>
      <trkpt lat="44.69929" lon="5.09761">
        <ele>229.47587021164</ele>
        <time>2012-10-03T09:05:49Z</time>
      </trkpt>
      <trkpt lat="44.69912" lon="5.09756">
        <ele>231.16953387535</ele>
        <time>2012-10-03T09:05:55Z</time>
      </trkpt>
      <trkpt lat="44.699" lon="5.09754">
        <ele>231.67763523168</ele>
        <time>2012-10-03T09:06:01Z</time>
      </trkpt>
      <trkpt lat="44.69889" lon="5.0975">
        <ele>231.84666327696</ele>
        <time>2012-10-03T09:06:07Z</time>
      </trkpt>
      <trkpt lat="44.69876" lon="5.09727">
        <ele>232.43957548224</ele>
        <time>2012-10-03T09:06:13Z</time>
      </trkpt>
      <trkpt lat="44.69869" lon="5.097">
        <ele>234.55717428866</ele>
        <time>2012-10-03T09:06:18Z</time>
      </trkpt>
      <trkpt lat="44.69871" lon="5.09683">
        <ele>234.89584409289</ele>
        <time>2012-10-03T09:06:23Z</time>
      </trkpt>
      <trkpt lat="44.69881" lon="5.09678">
        <ele>238.79366980918</ele>
        <time>2012-10-03T09:06:28Z</time>
      </trkpt>
      <trkpt lat="44.69881" lon="5.09656">
        <ele>238.20039414729</ele>
        <time>2012-10-03T09:06:34Z</time>
      </trkpt>
      <trkpt lat="44.69885" lon="5.09637">
        <ele>237.01394466086</ele>
        <time>2012-10-03T09:06:40Z</time>
      </trkpt>
      <trkpt lat="44.699" lon="5.0962">
        <ele>235.74334265913</ele>
        <time>2012-10-03T09:06:46Z</time>
      </trkpt>
      <trkpt lat="44.69916" lon="5.09603">
        <ele>236.16685935882</ele>
        <time>2012-10-03T09:06:51Z</time>
      </trkpt>
      <trkpt lat="44.69927" lon="5.09579">
        <ele>233.54071424852</ele>
        <time>2012-10-03T09:06:57Z</time>
      </trkpt>
      <trkpt lat="44.69927" lon="5.09549">
        <ele>233.71028966973</ele>
        <time>2012-10-03T09:07:03Z</time>
      </trkpt>
      <trkpt lat="44.69925" lon="5.09523">
        <ele>236.16685935882</ele>
        <time>2012-10-03T09:07:08Z</time>
      </trkpt>
      <trkpt lat="44.69925" lon="5.09499">
        <ele>236.08205121076</ele>
        <time>2012-10-03T09:07:13Z</time>
      </trkpt>
      <trkpt lat="44.69924" lon="5.09476">
        <ele>238.37004579645</ele>
        <time>2012-10-03T09:07:18Z</time>
      </trkpt>
      <trkpt lat="44.69926" lon="5.09457">
        <ele>238.20039414729</ele>
        <time>2012-10-03T09:07:23Z</time>
      </trkpt>
      <trkpt lat="44.6993" lon="5.09437">
        <ele>238.37004579645</ele>
        <time>2012-10-03T09:07:29Z</time>
      </trkpt>
      <trkpt lat="44.69932" lon="5.09415">
        <ele>234.81156339779</ele>
        <time>2012-10-03T09:07:34Z</time>
      </trkpt>
      <trkpt lat="44.69925" lon="5.09393">
        <ele>237.60715243262</ele>
        <time>2012-10-03T09:07:40Z</time>
      </trkpt>
      <trkpt lat="44.69928" lon="5.09367">
        <ele>236.08205121076</ele>
        <time>2012-10-03T09:07:47Z</time>
      </trkpt>
      <trkpt lat="44.69942" lon="5.09344">
        <ele>238.20039414729</ele>
        <time>2012-10-03T09:07:53Z</time>
      </trkpt>
      <trkpt lat="44.69949" lon="5.0932">
        <ele>237.69197305663</ele>
        <time>2012-10-03T09:07:59Z</time>
      </trkpt>
      <trkpt lat="44.69951" lon="5.09296">
        <ele>236.59039335887</ele>
        <time>2012-10-03T09:08:05Z</time>
      </trkpt>
      <trkpt lat="44.69957" lon="5.0927">
        <ele>237.86161638645</ele>
        <time>2012-10-03T09:08:10Z</time>
      </trkpt>
      <trkpt lat="44.69967" lon="5.09245">
        <ele>234.30330845274</ele>
        <time>2012-10-03T09:08:17Z</time>
      </trkpt>
      <trkpt lat="44.69977" lon="5.0922">
        <ele>234.55717428866</ele>
        <time>2012-10-03T09:08:23Z</time>
      </trkpt>
      <trkpt lat="44.69981" lon="5.09193">
        <ele>236.59039335887</ele>
        <time>2012-10-03T09:08:29Z</time>
      </trkpt>
      <trkpt lat="44.69972" lon="5.09164">
        <ele>233.96414098648</ele>
        <time>2012-10-03T09:08:35Z</time>
      </trkpt>
      <trkpt lat="44.69963" lon="5.09139">
        <ele>233.87935085339</ele>
        <time>2012-10-03T09:08:40Z</time>
      </trkpt>
      <trkpt lat="44.69951" lon="5.09119">
        <ele>232.10098589452</ele>
        <time>2012-10-03T09:08:47Z</time>
      </trkpt>
      <trkpt lat="44.69935" lon="5.09114">
        <ele>234.89584409289</ele>
        <time>2012-10-03T09:08:52Z</time>
      </trkpt>
      <trkpt lat="44.69921" lon="5.09116">
        <ele>235.31984325821</ele>
        <time>2012-10-03T09:08:58Z</time>
      </trkpt>
      <trkpt lat="44.69898" lon="5.0911">
        <ele>235.82814803673</ele>
        <time>2012-10-03T09:09:04Z</time>
      </trkpt>
      <trkpt lat="44.69885" lon="5.09109">
        <ele>238.20039414729</ele>
        <time>2012-10-03T09:09:09Z</time>
      </trkpt>
      <trkpt lat="44.69874" lon="5.09112">
        <ele>238.45487266208</ele>
        <time>2012-10-03T09:09:14Z</time>
      </trkpt>
      <trkpt lat="44.69855" lon="5.09117">
        <ele>236.25166820059</ele>
        <time>2012-10-03T09:09:20Z</time>
      </trkpt>
      <trkpt lat="44.69832" lon="5.0912">
        <ele>237.35321190821</ele>
        <time>2012-10-03T09:09:25Z</time>
      </trkpt>
      <trkpt lat="44.69815" lon="5.09117">
        <ele>238.28521962486</ele>
        <time>2012-10-03T09:09:31Z</time>
      </trkpt>
      <trkpt lat="44.69799" lon="5.09112">
        <ele>240.82771994151</ele>
        <time>2012-10-03T09:09:37Z</time>
      </trkpt>
      <trkpt lat="44.69789" lon="5.09107">
        <ele>244.30391036738</ele>
        <time>2012-10-03T09:09:43Z</time>
      </trkpt>
      <trkpt lat="44.69775" lon="5.09104">
        <ele>243.96441558445</ele>
        <time>2012-10-03T09:09:48Z</time>
      </trkpt>
      <trkpt lat="44.69759" lon="5.09101">
        <ele>244.5580212075</ele>
        <time>2012-10-03T09:09:53Z</time>
      </trkpt>
      <trkpt lat="44.69752" lon="5.09099">
        <ele>248.37457338423</ele>
        <time>2012-10-03T09:09:58Z</time>
      </trkpt>
      <trkpt lat="44.6974" lon="5.09094">
        <ele>248.1203689679</ele>
        <time>2012-10-03T09:10:04Z</time>
      </trkpt>
      <trkpt lat="44.69725" lon="5.09094">
        <ele>252.10759198872</ele>
        <time>2012-10-03T09:10:11Z</time>
      </trkpt>
      <trkpt lat="44.6971" lon="5.09089">
        <ele>255.41763431404</ele>
        <time>2012-10-03T09:10:17Z</time>
      </trkpt>
      <trkpt lat="44.69703" lon="5.0908">
        <ele>251.85277809509</ele>
        <time>2012-10-03T09:10:23Z</time>
      </trkpt>
      <trkpt lat="44.69693" lon="5.0907">
        <ele>255.92692558458</ele>
        <time>2012-10-03T09:10:28Z</time>
      </trkpt>
      <trkpt lat="44.69682" lon="5.09058">
        <ele>260.51167365722</ele>
        <time>2012-10-03T09:10:34Z</time>
      </trkpt>
      <trkpt lat="44.69675" lon="5.09051">
        <ele>257.96434098484</ele>
        <time>2012-10-03T09:10:40Z</time>
      </trkpt>
      <trkpt lat="44.69666" lon="5.09054">
        <ele>257.87935431059</ele>
        <time>2012-10-03T09:10:45Z</time>
      </trkpt>
      <trkpt lat="44.69655" lon="5.09063">
        <ele>261.61579870952</ele>
        <time>2012-10-03T09:10:51Z</time>
      </trkpt>
      <trkpt lat="44.69637" lon="5.09066">
        <ele>263.39975354358</ele>
        <time>2012-10-03T09:10:57Z</time>
      </trkpt>
      <trkpt lat="44.69624" lon="5.0906">
        <ele>266.11852937922</ele>
        <time>2012-10-03T09:11:03Z</time>
      </trkpt>
      <trkpt lat="44.69613" lon="5.09049">
        <ele>263.99447341351</ele>
        <time>2012-10-03T09:11:08Z</time>
      </trkpt>
      <trkpt lat="44.696" lon="5.0904">
        <ele>267.13818943479</ele>
        <time>2012-10-03T09:11:14Z</time>
      </trkpt>
      <trkpt lat="44.69582" lon="5.09042">
        <ele>266.0334758011</ele>
        <time>2012-10-03T09:11:20Z</time>
      </trkpt>
      <trkpt lat="44.6956" lon="5.09044">
        <ele>264.33410643744</ele>
        <time>2012-10-03T09:11:25Z</time>
      </trkpt>
      <trkpt lat="44.69543" lon="5.09048">
        <ele>265.7783192558</ele>
        <time>2012-10-03T09:11:31Z</time>
      </trkpt>
      <trkpt lat="44.69544" lon="5.09038">
        <ele>267.81767275422</ele>
        <time>2012-10-03T09:11:37Z</time>
      </trkpt>
      <trkpt lat="44.69556" lon="5.09034">
        <ele>269.00765395089</ele>
        <time>2012-10-03T09:11:43Z</time>
      </trkpt>
      <trkpt lat="44.69568" lon="5.0903">
        <ele>272.23799553385</ele>
        <time>2012-10-03T09:11:49Z</time>
      </trkpt>
      <trkpt lat="44.69581" lon="5.09013">
        <ele>274.95909198326</ele>
        <time>2012-10-03T09:11:55Z</time>
      </trkpt>
      <trkpt lat="44.69588" lon="5.08996">
        <ele>277.51060697568</ele>
        <time>2012-10-03T09:12:00Z</time>
      </trkpt>
      <trkpt lat="44.6959" lon="5.0898">
        <ele>274.61911047916</ele>
        <time>2012-10-03T09:12:05Z</time>
      </trkpt>
      <trkpt lat="44.69584" lon="5.08972">
        <ele>276.31964872455</ele>
        <time>2012-10-03T09:12:10Z</time>
      </trkpt>
      <trkpt lat="44.69574" lon="5.08974">
        <ele>280.14791945419</ele>
        <time>2012-10-03T09:12:16Z</time>
      </trkpt>
      <trkpt lat="44.69565" lon="5.08981">
        <ele>278.36159781183</ele>
        <time>2012-10-03T09:12:22Z</time>
      </trkpt>
      <trkpt lat="44.69552" lon="5.08987">
        <ele>281.84988509714</ele>
        <time>2012-10-03T09:12:27Z</time>
      </trkpt>
      <trkpt lat="44.69538" lon="5.08985">
        <ele>286.61656553135</ele>
        <time>2012-10-03T09:12:33Z</time>
      </trkpt>
      <trkpt lat="44.69528" lon="5.08975">
        <ele>286.36142112452</ele>
        <time>2012-10-03T09:12:39Z</time>
      </trkpt>
      <trkpt lat="44.69521" lon="5.08966">
        <ele>287.21261983174</ele>
        <time>2012-10-03T09:12:45Z</time>
      </trkpt>
      <trkpt lat="44.69514" lon="5.08961">
        <ele>288.74526568491</ele>
        <time>2012-10-03T09:12:50Z</time>
      </trkpt>
      <trkpt lat="44.69507" lon="5.0895">
        <ele>291.04491979011</ele>
        <time>2012-10-03T09:12:56Z</time>
      </trkpt>
      <trkpt lat="44.69502" lon="5.08935">
        <ele>292.23705269657</ele>
        <time>2012-10-03T09:13:03Z</time>
      </trkpt>
      <trkpt lat="44.69495" lon="5.0892">
        <ele>291.3001796153</ele>
        <time>2012-10-03T09:13:08Z</time>
      </trkpt>
      <trkpt lat="44.69494" lon="5.0892">
        <ele>292.40759143285</ele>
        <time>2012-10-03T09:13:13Z</time>
      </trkpt>
      <trkpt lat="44.69496" lon="5.08928">
        <ele>295.38987361977</ele>
        <time>2012-10-03T09:13:19Z</time>
      </trkpt>
      <trkpt lat="44.69502" lon="5.08931">
        <ele>295.81583545629</ele>
        <time>2012-10-03T09:13:25Z</time>
      </trkpt>
      <trkpt lat="44.6952" lon="5.08923">
        <ele>297.43506642485</ele>
        <time>2012-10-03T09:13:31Z</time>
      </trkpt>
      <trkpt lat="44.69532" lon="5.08922">
        <ele>301.95287881106</ele>
        <time>2012-10-03T09:13:36Z</time>
      </trkpt>
      <trkpt lat="44.69539" lon="5.08926">
        <ele>302.12357765325</ele>
        <time>2012-10-03T09:13:42Z</time>
      </trkpt>
      <trkpt lat="44.69543" lon="5.08915">
        <ele>304.42620536894</ele>
        <time>2012-10-03T09:13:48Z</time>
      </trkpt>
      <trkpt lat="44.69546" lon="5.08889">
        <ele>307.83788812822</ele>
        <time>2012-10-03T09:13:55Z</time>
      </trkpt>
      <trkpt lat="44.69541" lon="5.08868">
        <ele>309.97095630576</ele>
        <time>2012-10-03T09:14:01Z</time>
      </trkpt>
      <trkpt lat="44.69543" lon="5.08857">
        <ele>307.41143137344</ele>
        <time>2012-10-03T09:14:06Z</time>
      </trkpt>
      <trkpt lat="44.69549" lon="5.0885">
        <ele>308.60597116701</ele>
        <time>2012-10-03T09:14:12Z</time>
      </trkpt>
      <trkpt lat="44.69554" lon="5.08843">
        <ele>311.50697511476</ele>
        <time>2012-10-03T09:14:17Z</time>
      </trkpt>
      <trkpt lat="44.6956" lon="5.08839">
        <ele>312.3607646974</ele>
        <time>2012-10-03T09:14:22Z</time>
      </trkpt>
      <trkpt lat="44.69569" lon="5.08836">
        <ele>317.73933074387</ele>
        <time>2012-10-03T09:14:28Z</time>
      </trkpt>
      <trkpt lat="44.69571" lon="5.08837">
        <ele>315.77506415788</ele>
        <time>2012-10-03T09:14:34Z</time>
      </trkpt>
      <trkpt lat="44.69582" lon="5.08829">
        <ele>320.30141133831</ele>
        <time>2012-10-03T09:14:39Z</time>
      </trkpt>
      <trkpt lat="44.69598" lon="5.08816">
        <ele>319.61795405355</ele>
        <time>2012-10-03T09:14:44Z</time>
      </trkpt>
      <trkpt lat="44.69612" lon="5.0881">
        <ele>322.09498453307</ele>
        <time>2012-10-03T09:14:50Z</time>
      </trkpt>
      <trkpt lat="44.69625" lon="5.08801">
        <ele>323.37674559685</ele>
        <time>2012-10-03T09:14:56Z</time>
      </trkpt>
      <trkpt lat="44.69636" lon="5.08795">
        <ele>322.69308517422</ele>
        <time>2012-10-03T09:15:02Z</time>
      </trkpt>
      <trkpt lat="44.69651" lon="5.08788">
        <ele>323.80386072967</ele>
        <time>2012-10-03T09:15:08Z</time>
      </trkpt>
      <trkpt lat="44.69665" lon="5.08774">
        <ele>323.37674559685</ele>
        <time>2012-10-03T09:15:13Z</time>
      </trkpt>
      <trkpt lat="44.69676" lon="5.08762">
        <ele>325.25691429696</ele>
        <time>2012-10-03T09:15:19Z</time>
      </trkpt>
      <trkpt lat="44.69684" lon="5.08752">
        <ele>329.7013117958</ele>
        <time>2012-10-03T09:15:25Z</time>
      </trkpt>
      <trkpt lat="44.69694" lon="5.08743">
        <ele>331.92448763965</ele>
        <time>2012-10-03T09:15:31Z</time>
      </trkpt>
      <trkpt lat="44.69702" lon="5.08732">
        <ele>331.32585315435</ele>
        <time>2012-10-03T09:15:36Z</time>
      </trkpt>
      <trkpt lat="44.697" lon="5.08718">
        <ele>332.77944158446</ele>
        <time>2012-10-03T09:15:42Z</time>
      </trkpt>
      <trkpt lat="44.69695" lon="5.08711">
        <ele>332.35195578045</ele>
        <time>2012-10-03T09:15:47Z</time>
      </trkpt>
      <trkpt lat="44.69684" lon="5.08698">
        <ele>335.17452392698</ele>
        <time>2012-10-03T09:15:52Z</time>
      </trkpt>
      <trkpt lat="44.69676" lon="5.08684">
        <ele>336.97119965248</ele>
        <time>2012-10-03T09:15:57Z</time>
      </trkpt>
      <trkpt lat="44.69665" lon="5.08674">
        <ele>337.57016091226</ele>
        <time>2012-10-03T09:16:03Z</time>
      </trkpt>
      <trkpt lat="44.69648" lon="5.08668">
        <ele>338.85331845503</ele>
        <time>2012-10-03T09:16:09Z</time>
      </trkpt>
      <trkpt lat="44.6963" lon="5.08667">
        <ele>338.51123199879</ele>
        <time>2012-10-03T09:16:15Z</time>
      </trkpt>
      <trkpt lat="44.69606" lon="5.0866">
        <ele>341.33495906456</ele>
        <time>2012-10-03T09:16:21Z</time>
      </trkpt>
      <trkpt lat="44.69595" lon="5.0865">
        <ele>340.05149365836</ele>
        <time>2012-10-03T09:16:27Z</time>
      </trkpt>
      <trkpt lat="44.69583" lon="5.08643">
        <ele>343.73202338562</ele>
        <time>2012-10-03T09:16:32Z</time>
      </trkpt>
      <trkpt lat="44.69566" lon="5.0864">
        <ele>340.30796505891</ele>
        <time>2012-10-03T09:16:39Z</time>
      </trkpt>
      <trkpt lat="44.69548" lon="5.08636">
        <ele>344.24567765968</ele>
        <time>2012-10-03T09:16:44Z</time>
      </trkpt>
      <trkpt lat="44.69533" lon="5.08629">
        <ele>342.19121360016</ele>
        <time>2012-10-03T09:16:50Z</time>
      </trkpt>
      <trkpt lat="44.69516" lon="5.08616">
        <ele>343.38977554325</ele>
        <time>2012-10-03T09:16:56Z</time>
      </trkpt>
      <trkpt lat="44.69512" lon="5.08596">
        <ele>344.41707560632</ele>
        <time>2012-10-03T09:17:01Z</time>
      </trkpt>
      <trkpt lat="44.69502" lon="5.08582">
        <ele>347.15721563238</ele>
        <time>2012-10-03T09:17:07Z</time>
      </trkpt>
      <trkpt lat="44.69483" lon="5.0857">
        <ele>344.75935744459</ele>
        <time>2012-10-03T09:17:12Z</time>
      </trkpt>
      <trkpt lat="44.69468" lon="5.08549">
        <ele>343.21839461957</ele>
        <time>2012-10-03T09:17:18Z</time>
      </trkpt>
      <trkpt lat="44.69453" lon="5.0852">
        <ele>340.82144931575</ele>
        <time>2012-10-03T09:17:23Z</time>
      </trkpt>
      <trkpt lat="44.6944" lon="5.085">
        <ele>330.72725330541</ele>
        <time>2012-10-03T09:17:29Z</time>
      </trkpt>
      <trkpt lat="44.69421" lon="5.08482">
        <ele>334.49008352293</ele>
        <time>2012-10-03T09:17:35Z</time>
      </trkpt>
      <trkpt lat="44.69406" lon="5.08467">
        <ele>334.23375632358</ele>
        <time>2012-10-03T09:17:40Z</time>
      </trkpt>
      <trkpt lat="44.69399" lon="5.08451">
        <ele>336.97119965248</ele>
        <time>2012-10-03T09:17:45Z</time>
      </trkpt>
      <trkpt lat="44.69387" lon="5.08435">
        <ele>340.22282211694</ele>
        <time>2012-10-03T09:17:52Z</time>
      </trkpt>
      <trkpt lat="44.69375" lon="5.08438">
        <ele>342.87616377231</ele>
        <time>2012-10-03T09:17:57Z</time>
      </trkpt>
      <trkpt lat="44.69366" lon="5.08449">
        <ele>342.87616377231</ele>
        <time>2012-10-03T09:18:03Z</time>
      </trkpt>
      <trkpt lat="44.69356" lon="5.08458">
        <ele>346.55769896413</ele>
        <time>2012-10-03T09:18:08Z</time>
      </trkpt>
      <trkpt lat="44.69349" lon="5.08464">
        <ele>347.07149359585</ele>
        <time>2012-10-03T09:18:13Z</time>
      </trkpt>
      <trkpt lat="44.69342" lon="5.08472">
        <ele>349.21266649073</ele>
        <time>2012-10-03T09:18:19Z</time>
      </trkpt>
      <trkpt lat="44.69335" lon="5.0848">
        <ele>351.8683157912</ele>
        <time>2012-10-03T09:18:24Z</time>
      </trkpt>
      <trkpt lat="44.69325" lon="5.08483">
        <ele>353.66737101611</ele>
        <time>2012-10-03T09:18:30Z</time>
      </trkpt>
      <trkpt lat="44.69316" lon="5.08488">
        <ele>356.7531657091</ele>
        <time>2012-10-03T09:18:35Z</time>
      </trkpt>
      <trkpt lat="44.69307" lon="5.08494">
        <ele>356.4099635051</ele>
        <time>2012-10-03T09:18:41Z</time>
      </trkpt>
      <trkpt lat="44.69294" lon="5.08505">
        <ele>356.06729584029</ele>
        <time>2012-10-03T09:18:47Z</time>
      </trkpt>
      <trkpt lat="44.69287" lon="5.08504">
        <ele>360.01101485545</ele>
        <time>2012-10-03T09:18:53Z</time>
      </trkpt>
      <trkpt lat="44.69288" lon="5.0849">
        <ele>363.2698908726</ele>
        <time>2012-10-03T09:18:59Z</time>
      </trkpt>
      <trkpt lat="44.69291" lon="5.08477">
        <ele>365.15680261315</ele>
        <time>2012-10-03T09:19:05Z</time>
      </trkpt>
      <trkpt lat="44.6929" lon="5.08459">
        <ele>363.35522378501</ele>
        <time>2012-10-03T09:19:11Z</time>
      </trkpt>
      <trkpt lat="44.69291" lon="5.08439">
        <ele>365.84327575468</ele>
        <time>2012-10-03T09:19:16Z</time>
      </trkpt>
      <trkpt lat="44.69294" lon="5.08418">
        <ele>366.52927080647</ele>
        <time>2012-10-03T09:19:22Z</time>
      </trkpt>
      <trkpt lat="44.69291" lon="5.08399">
        <ele>365.92915355855</ele>
        <time>2012-10-03T09:19:27Z</time>
      </trkpt>
      <trkpt lat="44.69277" lon="5.08378">
        <ele>367.81655078871</ele>
        <time>2012-10-03T09:19:33Z</time>
      </trkpt>
      <trkpt lat="44.69267" lon="5.08364">
        <ele>369.79020257181</ele>
        <time>2012-10-03T09:19:40Z</time>
      </trkpt>
      <trkpt lat="44.69258" lon="5.08345">
        <ele>370.13384925497</ele>
        <time>2012-10-03T09:19:46Z</time>
      </trkpt>
      <trkpt lat="44.69248" lon="5.0832">
        <ele>366.2721482436</ele>
        <time>2012-10-03T09:19:52Z</time>
      </trkpt>
      <trkpt lat="44.69236" lon="5.08298">
        <ele>370.73473455157</ele>
        <time>2012-10-03T09:19:59Z</time>
      </trkpt>
      <trkpt lat="44.69218" lon="5.08267">
        <ele>369.96202448532</ele>
        <time>2012-10-03T09:20:04Z</time>
      </trkpt>
      <trkpt lat="44.69208" lon="5.08252">
        <ele>372.96622637998</ele>
        <time>2012-10-03T09:20:09Z</time>
      </trkpt>
      <trkpt lat="44.69196" lon="5.08249">
        <ele>374.51215356903</ele>
        <time>2012-10-03T09:20:14Z</time>
      </trkpt>
      <trkpt lat="44.6919" lon="5.0824">
        <ele>372.36573532339</ele>
        <time>2012-10-03T09:20:19Z</time>
      </trkpt>
      <trkpt lat="44.69193" lon="5.08216">
        <ele>373.99699349951</ele>
        <time>2012-10-03T09:20:26Z</time>
      </trkpt>
      <trkpt lat="44.69192" lon="5.08193">
        <ele>374.85543318101</ele>
        <time>2012-10-03T09:20:32Z</time>
      </trkpt>
      <trkpt lat="44.69184" lon="5.08161">
        <ele>372.1938734491</ele>
        <time>2012-10-03T09:20:38Z</time>
      </trkpt>
      <trkpt lat="44.69177" lon="5.08128">
        <ele>373.13810109699</ele>
        <time>2012-10-03T09:20:44Z</time>
      </trkpt>
      <trkpt lat="44.69173" lon="5.081">
        <ele>375.54255074581</ele>
        <time>2012-10-03T09:20:50Z</time>
      </trkpt>
      <trkpt lat="44.69172" lon="5.08075">
        <ele>375.19872419481</ele>
        <time>2012-10-03T09:20:55Z</time>
      </trkpt>
      <trkpt lat="44.69169" lon="5.08048">
        <ele>375.79990401781</ele>
        <time>2012-10-03T09:21:02Z</time>
      </trkpt>
      <trkpt lat="44.69159" lon="5.08028">
        <ele>378.46239264239</ele>
        <time>2012-10-03T09:21:07Z</time>
      </trkpt>
      <trkpt lat="44.69142" lon="5.08026">
        <ele>379.14975006136</ele>
        <time>2012-10-03T09:21:13Z</time>
      </trkpt>
      <trkpt lat="44.69127" lon="5.08026">
        <ele>375.97182586351</ele>
        <time>2012-10-03T09:21:19Z</time>
      </trkpt>
      <trkpt lat="44.69113" lon="5.08006">
        <ele>375.54255074581</ele>
        <time>2012-10-03T09:21:25Z</time>
      </trkpt>
      <trkpt lat="44.69097" lon="5.07995">
        <ele>376.31515396081</ele>
        <time>2012-10-03T09:21:30Z</time>
      </trkpt>
      <trkpt lat="44.69082" lon="5.07994">
        <ele>375.19872419481</ele>
        <time>2012-10-03T09:21:36Z</time>
      </trkpt>
      <trkpt lat="44.69069" lon="5.07995">
        <ele>374.76948118529</ele>
        <time>2012-10-03T09:21:42Z</time>
      </trkpt>
      <trkpt lat="44.69064" lon="5.0798">
        <ele>374.34025600165</ele>
        <time>2012-10-03T09:21:47Z</time>
      </trkpt>
      <trkpt lat="44.69068" lon="5.07965">
        <ele>381.03956320762</ele>
        <time>2012-10-03T09:21:53Z</time>
      </trkpt>
      <trkpt lat="44.6907" lon="5.07951">
        <ele>378.63435878416</ele>
        <time>2012-10-03T09:21:58Z</time>
      </trkpt>
      <trkpt lat="44.6906" lon="5.07934">
        <ele>383.61790118134</ele>
        <time>2012-10-03T09:22:04Z</time>
      </trkpt>
      <trkpt lat="44.69052" lon="5.07922">
        <ele>383.18778382735</ele>
        <time>2012-10-03T09:22:09Z</time>
      </trkpt>
      <trkpt lat="44.69044" lon="5.0791">
        <ele>387.65768167236</ele>
        <time>2012-10-03T09:22:15Z</time>
      </trkpt>
      <trkpt lat="44.69044" lon="5.07895">
        <ele>386.45397668969</ele>
        <time>2012-10-03T09:22:20Z</time>
      </trkpt>
      <trkpt lat="44.69043" lon="5.0788">
        <ele>388.25958675248</ele>
        <time>2012-10-03T09:22:25Z</time>
      </trkpt>
      <trkpt lat="44.69037" lon="5.07866">
        <ele>389.29135566354</ele>
        <time>2012-10-03T09:22:31Z</time>
      </trkpt>
      <trkpt lat="44.69037" lon="5.07854">
        <ele>391.35520263472</ele>
        <time>2012-10-03T09:22:36Z</time>
      </trkpt>
      <trkpt lat="44.69034" lon="5.07836">
        <ele>389.3774285298</ele>
        <time>2012-10-03T09:22:41Z</time>
      </trkpt>
      <trkpt lat="44.69023" lon="5.07819">
        <ele>390.75311719647</ele>
        <time>2012-10-03T09:22:47Z</time>
      </trkpt>
      <trkpt lat="44.6902" lon="5.07801">
        <ele>392.4733794027</ele>
        <time>2012-10-03T09:22:53Z</time>
      </trkpt>
      <trkpt lat="44.69021" lon="5.07794">
        <ele>392.90335845912</ele>
        <time>2012-10-03T09:22:58Z</time>
      </trkpt>
      <trkpt lat="44.69023" lon="5.07791">
        <ele>395.82863602461</ele>
        <time>2012-10-03T09:23:03Z</time>
      </trkpt>
      <trkpt lat="44.69031" lon="5.07785">
        <ele>398.0660793305</ele>
        <time>2012-10-03T09:23:09Z</time>
      </trkpt>
      <trkpt lat="44.69042" lon="5.07775">
        <ele>401.93968254759</ele>
        <time>2012-10-03T09:23:15Z</time>
      </trkpt>
      <trkpt lat="44.69048" lon="5.07766">
        <ele>400.9061242833</ele>
        <time>2012-10-03T09:23:21Z</time>
      </trkpt>
      <trkpt lat="44.69049" lon="5.07761">
        <ele>401.33697992729</ele>
        <time>2012-10-03T09:23:27Z</time>
      </trkpt>
      <trkpt lat="44.69052" lon="5.07758">
        <ele>405.72800336086</ele>
        <time>2012-10-03T09:23:33Z</time>
      </trkpt>
      <trkpt lat="44.69058" lon="5.07744">
        <ele>404.95319765027</ele>
        <time>2012-10-03T09:23:38Z</time>
      </trkpt>
      <trkpt lat="44.6906" lon="5.07729">
        <ele>411.7586511115</ele>
        <time>2012-10-03T09:23:44Z</time>
      </trkpt>
      <trkpt lat="44.6906" lon="5.07715">
        <ele>413.48241550291</ele>
        <time>2012-10-03T09:23:49Z</time>
      </trkpt>
      <trkpt lat="44.69062" lon="5.07704">
        <ele>412.87903893386</ele>
        <time>2012-10-03T09:23:55Z</time>
      </trkpt>
      <trkpt lat="44.6907" lon="5.07689">
        <ele>413.22412182769</ele>
        <time>2012-10-03T09:24:00Z</time>
      </trkpt>
      <trkpt lat="44.69071" lon="5.07672">
        <ele>418.31017139123</ele>
        <time>2012-10-03T09:24:07Z</time>
      </trkpt>
      <trkpt lat="44.69065" lon="5.07651">
        <ele>420.89730399783</ele>
        <time>2012-10-03T09:24:12Z</time>
      </trkpt>
      <trkpt lat="44.69057" lon="5.07626">
        <ele>419.17282780309</ele>
        <time>2012-10-03T09:24:18Z</time>
      </trkpt>
      <trkpt lat="44.69048" lon="5.07608">
        <ele>422.62259479625</ele>
        <time>2012-10-03T09:24:24Z</time>
      </trkpt>
      <trkpt lat="44.69042" lon="5.07598">
        <ele>425.55630366172</ele>
        <time>2012-10-03T09:24:31Z</time>
      </trkpt>
      <trkpt lat="44.69037" lon="5.07589">
        <ele>425.55630366172</ele>
        <time>2012-10-03T09:24:36Z</time>
      </trkpt>
      <trkpt lat="44.6903" lon="5.07569">
        <ele>424.34817395311</ele>
        <time>2012-10-03T09:24:43Z</time>
      </trkpt>
      <trkpt lat="44.69029" lon="5.07548">
        <ele>424.43453947548</ele>
        <time>2012-10-03T09:24:49Z</time>
      </trkpt>
      <trkpt lat="44.69038" lon="5.07537">
        <ele>427.19598393407</ele>
        <time>2012-10-03T09:24:54Z</time>
      </trkpt>
      <trkpt lat="44.69044" lon="5.07514">
        <ele>426.50542188566</ele>
        <time>2012-10-03T09:25:00Z</time>
      </trkpt>
      <trkpt lat="44.69045" lon="5.07478">
        <ele>422.70894588467</ele>
        <time>2012-10-03T09:25:06Z</time>
      </trkpt>
      <trkpt lat="44.69047" lon="5.07448">
        <ele>422.44989478604</ele>
        <time>2012-10-03T09:25:11Z</time>
      </trkpt>
      <trkpt lat="44.69047" lon="5.07425">
        <ele>421.4148083194</ele>
        <time>2012-10-03T09:25:16Z</time>
      </trkpt>
      <trkpt lat="44.6905" lon="5.07405">
        <ele>417.79282264984</ele>
        <time>2012-10-03T09:25:23Z</time>
      </trkpt>
      <trkpt lat="44.69051" lon="5.07397">
        <ele>419.17282780309</ele>
        <time>2012-10-03T09:25:28Z</time>
      </trkpt>
      <trkpt lat="44.69064" lon="5.07395">
        <ele>414.25838749949</ele>
        <time>2012-10-03T09:25:34Z</time>
      </trkpt>
      <trkpt lat="44.69058" lon="5.07379">
        <ele>411.9311723984</ele>
        <time>2012-10-03T09:25:40Z</time>
      </trkpt>
      <trkpt lat="44.69039" lon="5.07375">
        <ele>409.08756883953</ele>
        <time>2012-10-03T09:25:45Z</time>
      </trkpt>
      <trkpt lat="44.69023" lon="5.07375">
        <ele>410.81088740159</ele>
        <time>2012-10-03T09:25:50Z</time>
      </trkpt>
      <trkpt lat="44.69013" lon="5.07364">
        <ele>404.7807928876</ele>
        <time>2012-10-03T09:25:55Z</time>
      </trkpt>
      <trkpt lat="44.69011" lon="5.07342">
        <ele>407.96759224987</ele>
        <time>2012-10-03T09:26:00Z</time>
      </trkpt>
      <trkpt lat="44.69001" lon="5.07318">
        <ele>403.40323502484</ele>
        <time>2012-10-03T09:26:06Z</time>
      </trkpt>
      <trkpt lat="44.68983" lon="5.07302">
        <ele>408.39874256811</ele>
        <time>2012-10-03T09:26:12Z</time>
      </trkpt>
      <trkpt lat="44.6897" lon="5.07286">
        <ele>408.39874256811</ele>
        <time>2012-10-03T09:26:17Z</time>
      </trkpt>
      <trkpt lat="44.68957" lon="5.07271">
        <ele>410.29391422758</ele>
        <time>2012-10-03T09:26:22Z</time>
      </trkpt>
      <trkpt lat="44.68948" lon="5.07255">
        <ele>408.57068192247</ele>
        <time>2012-10-03T09:26:28Z</time>
      </trkpt>
      <trkpt lat="44.6894" lon="5.07233">
        <ele>399.3567687825</ele>
        <time>2012-10-03T09:26:34Z</time>
      </trkpt>
      <trkpt lat="44.6893" lon="5.07212">
        <ele>410.03517440126</ele>
        <time>2012-10-03T09:26:39Z</time>
      </trkpt>
      <trkpt lat="44.68922" lon="5.07189">
        <ele>414.43042444224</ele>
        <time>2012-10-03T09:26:45Z</time>
      </trkpt>
      <trkpt lat="44.68917" lon="5.07168">
        <ele>413.39614154047</ele>
        <time>2012-10-03T09:26:50Z</time>
      </trkpt>
      <trkpt lat="44.6891" lon="5.07147">
        <ele>417.53442113398</ele>
        <time>2012-10-03T09:26:56Z</time>
      </trkpt>
      <trkpt lat="44.68901" lon="5.07135">
        <ele>420.46615794633</ele>
        <time>2012-10-03T09:27:02Z</time>
      </trkpt>
      <trkpt lat="44.68888" lon="5.07127">
        <ele>419.43127032531</ele>
        <time>2012-10-03T09:27:08Z</time>
      </trkpt>
      <trkpt lat="44.6888" lon="5.0712">
        <ele>421.84652047705</ele>
        <time>2012-10-03T09:27:13Z</time>
      </trkpt>
      <trkpt lat="44.68872" lon="5.07112">
        <ele>423.65780236413</ele>
        <time>2012-10-03T09:27:19Z</time>
      </trkpt>
      <trkpt lat="44.6886" lon="5.07103">
        <ele>426.93682022172</ele>
        <time>2012-10-03T09:27:25Z</time>
      </trkpt>
      <trkpt lat="44.68841" lon="5.07104">
        <ele>427.54101889191</ele>
        <time>2012-10-03T09:27:31Z</time>
      </trkpt>
      <trkpt lat="44.68823" lon="5.0711">
        <ele>427.80019777317</ele>
        <time>2012-10-03T09:27:37Z</time>
      </trkpt>
      <trkpt lat="44.68814" lon="5.07127">
        <ele>429.95816726517</ele>
        <time>2012-10-03T09:27:43Z</time>
      </trkpt>
      <trkpt lat="44.6881" lon="5.07155">
        <ele>429.61252462318</ele>
        <time>2012-10-03T09:27:48Z</time>
      </trkpt>
      <trkpt lat="44.68809" lon="5.07177">
        <ele>430.90769030765</ele>
        <time>2012-10-03T09:27:54Z</time>
      </trkpt>
      <trkpt lat="44.68805" lon="5.07198">
        <ele>433.67086715509</ele>
        <time>2012-10-03T09:28:00Z</time>
      </trkpt>
      <trkpt lat="44.68792" lon="5.07206">
        <ele>431.42569669053</ele>
        <time>2012-10-03T09:28:05Z</time>
      </trkpt>
      <trkpt lat="44.68778" lon="5.0721">
        <ele>433.32510017259</ele>
        <time>2012-10-03T09:28:11Z</time>
      </trkpt>
      <trkpt lat="44.68765" lon="5.07213">
        <ele>435.13892456263</ele>
        <time>2012-10-03T09:28:17Z</time>
      </trkpt>
      <trkpt lat="44.68751" lon="5.07223">
        <ele>434.27546012339</ele>
        <time>2012-10-03T09:28:22Z</time>
      </trkpt>
      <trkpt lat="44.68737" lon="5.07233">
        <ele>437.47137763266</ele>
        <time>2012-10-03T09:28:28Z</time>
      </trkpt>
      <trkpt lat="44.68723" lon="5.07241">
        <ele>436.69365895819</ele>
        <time>2012-10-03T09:28:34Z</time>
      </trkpt>
      <trkpt lat="44.68717" lon="5.07229">
        <ele>438.42159212224</ele>
        <time>2012-10-03T09:28:40Z</time>
      </trkpt>
      <trkpt lat="44.68717" lon="5.07219">
        <ele>440.40878288198</ele>
        <time>2012-10-03T09:28:46Z</time>
      </trkpt>
      <trkpt lat="44.68706" lon="5.07212">
        <ele>441.27328810405</ele>
        <time>2012-10-03T09:28:51Z</time>
      </trkpt>
      <trkpt lat="44.68687" lon="5.0721">
        <ele>443.0879824413</ele>
        <time>2012-10-03T09:28:57Z</time>
      </trkpt>
      <trkpt lat="44.68673" lon="5.07207">
        <ele>446.97851743606</ele>
        <time>2012-10-03T09:29:03Z</time>
      </trkpt>
      <trkpt lat="44.68661" lon="5.07201">
        <ele>449.91915842681</ele>
        <time>2012-10-03T09:29:08Z</time>
      </trkpt>
      <trkpt lat="44.68652" lon="5.07196">
        <ele>451.04316810963</ele>
        <time>2012-10-03T09:29:13Z</time>
      </trkpt>
      <trkpt lat="44.68647" lon="5.0718">
        <ele>452.94671411848</ele>
        <time>2012-10-03T09:29:19Z</time>
      </trkpt>
      <trkpt lat="44.68637" lon="5.07161">
        <ele>453.63904776183</ele>
        <time>2012-10-03T09:29:25Z</time>
      </trkpt>
      <trkpt lat="44.68617" lon="5.07159">
        <ele>453.20600373324</ele>
        <time>2012-10-03T09:29:30Z</time>
      </trkpt>
      <trkpt lat="44.68612" lon="5.0716">
        <ele>457.44692104084</ele>
        <time>2012-10-03T09:29:36Z</time>
      </trkpt>
      <trkpt lat="44.68607" lon="5.07139">
        <ele>456.92760683729</ele>
        <time>2012-10-03T09:29:41Z</time>
      </trkpt>
      <trkpt lat="44.68601" lon="5.07133">
        <ele>457.27363730176</ele>
        <time>2012-10-03T09:29:47Z</time>
      </trkpt>
      <trkpt lat="44.68594" lon="5.07144">
        <ele>460.90950782048</ele>
        <time>2012-10-03T09:29:53Z</time>
      </trkpt>
      <trkpt lat="44.68588" lon="5.07161">
        <ele>464.46048710864</ele>
        <time>2012-10-03T09:29:59Z</time>
      </trkpt>
      <trkpt lat="44.6859" lon="5.07192">
        <ele>467.40558743328</ele>
        <time>2012-10-03T09:30:05Z</time>
      </trkpt>
      <trkpt lat="44.68591" lon="5.07206">
        <ele>466.53941857452</ele>
        <time>2012-10-03T09:30:10Z</time>
      </trkpt>
      <trkpt lat="44.68586" lon="5.07218">
        <ele>467.40558743328</ele>
        <time>2012-10-03T09:30:16Z</time>
      </trkpt>
      <trkpt lat="44.68584" lon="5.07234">
        <ele>469.31215549731</ele>
        <time>2012-10-03T09:30:21Z</time>
      </trkpt>
      <trkpt lat="44.68587" lon="5.07259">
        <ele>470.6117854364</ele>
        <time>2012-10-03T09:30:26Z</time>
      </trkpt>
      <trkpt lat="44.68592" lon="5.07281">
        <ele>471.39206523777</ele>
        <time>2012-10-03T09:30:32Z</time>
      </trkpt>
      <trkpt lat="44.68598" lon="5.07291">
        <ele>476.07339645953</ele>
        <time>2012-10-03T09:30:38Z</time>
      </trkpt>
      <trkpt lat="44.68606" lon="5.07301">
        <ele>476.16019603455</ele>
        <time>2012-10-03T09:30:44Z</time>
      </trkpt>
      <trkpt lat="44.68611" lon="5.07311">
        <ele>477.89475291663</ele>
        <time>2012-10-03T09:30:49Z</time>
      </trkpt>
      <trkpt lat="44.68611" lon="5.07322">
        <ele>483.88087073873</ele>
        <time>2012-10-03T09:30:55Z</time>
      </trkpt>
      <trkpt lat="44.68614" lon="5.07329">
        <ele>485.00911761335</ele>
        <time>2012-10-03T09:31:00Z</time>
      </trkpt>
      <trkpt lat="44.68621" lon="5.07342">
        <ele>486.91841375886</ele>
        <time>2012-10-03T09:31:06Z</time>
      </trkpt>
      <trkpt lat="44.68625" lon="5.07355">
        <ele>489.60972317019</ele>
        <time>2012-10-03T09:31:12Z</time>
      </trkpt>
      <trkpt lat="44.68624" lon="5.07366">
        <ele>490.82552035207</ele>
        <time>2012-10-03T09:31:18Z</time>
      </trkpt>
      <trkpt lat="44.68628" lon="5.07379">
        <ele>492.30173539297</ele>
        <time>2012-10-03T09:31:23Z</time>
      </trkpt>
      <trkpt lat="44.68634" lon="5.07395">
        <ele>488.91550051745</ele>
        <time>2012-10-03T09:31:29Z</time>
      </trkpt>
      <trkpt lat="44.68634" lon="5.07407">
        <ele>493.17060134937</ele>
        <time>2012-10-03T09:31:35Z</time>
      </trkpt>
      <trkpt lat="44.68643" lon="5.07425">
        <ele>494.38628841521</ele>
        <time>2012-10-03T09:31:41Z</time>
      </trkpt>
      <trkpt lat="44.68658" lon="5.07445">
        <ele>495.86354381216</ele>
        <time>2012-10-03T09:31:47Z</time>
      </trkpt>
      <trkpt lat="44.68669" lon="5.07463">
        <ele>499.42605303197</ele>
        <time>2012-10-03T09:31:53Z</time>
      </trkpt>
      <trkpt lat="44.68674" lon="5.07471">
        <ele>503.25087583542</ele>
        <time>2012-10-03T09:31:58Z</time>
      </trkpt>
      <trkpt lat="44.68682" lon="5.07481">
        <ele>504.81591293646</ele>
        <time>2012-10-03T09:32:04Z</time>
      </trkpt>
      <trkpt lat="44.68688" lon="5.07496">
        <ele>503.16384785565</ele>
        <time>2012-10-03T09:32:09Z</time>
      </trkpt>
      <trkpt lat="44.68697" lon="5.07512">
        <ele>508.46912170413</ele>
        <time>2012-10-03T09:32:15Z</time>
      </trkpt>
      <trkpt lat="44.68707" lon="5.07518">
        <ele>510.38276910219</ele>
        <time>2012-10-03T09:32:20Z</time>
      </trkpt>
      <trkpt lat="44.68715" lon="5.07524">
        <ele>512.21019868486</ele>
        <time>2012-10-03T09:32:26Z</time>
      </trkpt>
      <trkpt lat="44.68715" lon="5.07525">
        <ele>516.03977058258</ele>
        <time>2012-10-03T09:32:33Z</time>
      </trkpt>
      <trkpt lat="44.68716" lon="5.0753">
        <ele>517.60675154171</ele>
        <time>2012-10-03T09:32:39Z</time>
      </trkpt>
      <trkpt lat="44.68701" lon="5.07545">
        <ele>520.82860525644</ele>
        <time>2012-10-03T09:32:45Z</time>
      </trkpt>
      <trkpt lat="44.68686" lon="5.07552">
        <ele>524.13867155221</ele>
        <time>2012-10-03T09:32:52Z</time>
      </trkpt>
      <trkpt lat="44.68676" lon="5.07559">
        <ele>526.40412276177</ele>
        <time>2012-10-03T09:32:59Z</time>
      </trkpt>
      <trkpt lat="44.68667" lon="5.0757">
        <ele>529.01851962957</ele>
        <time>2012-10-03T09:33:05Z</time>
      </trkpt>
      <trkpt lat="44.68661" lon="5.07577">
        <ele>527.71097228232</ele>
        <time>2012-10-03T09:33:11Z</time>
      </trkpt>
      <trkpt lat="44.68653" lon="5.07594">
        <ele>528.40834567408</ele>
        <time>2012-10-03T09:33:17Z</time>
      </trkpt>
      <trkpt lat="44.68643" lon="5.07609">
        <ele>535.20848204886</ele>
        <time>2012-10-03T09:33:22Z</time>
      </trkpt>
      <trkpt lat="44.68636" lon="5.07614">
        <ele>533.46478405319</ele>
        <time>2012-10-03T09:33:27Z</time>
      </trkpt>
      <trkpt lat="44.68636" lon="5.07619">
        <ele>538.69782903663</ele>
        <time>2012-10-03T09:33:33Z</time>
      </trkpt>
      <trkpt lat="44.68633" lon="5.07632">
        <ele>541.49005168992</ele>
        <time>2012-10-03T09:33:39Z</time>
      </trkpt>
      <trkpt lat="44.68627" lon="5.0764">
        <ele>541.053833494</ele>
        <time>2012-10-03T09:33:44Z</time>
      </trkpt>
      <trkpt lat="44.68621" lon="5.07653">
        <ele>543.3230092264</ele>
        <time>2012-10-03T09:33:51Z</time>
      </trkpt>
      <trkpt lat="44.68619" lon="5.07671">
        <ele>547.33843836048</ele>
        <time>2012-10-03T09:33:57Z</time>
      </trkpt>
      <trkpt lat="44.68619" lon="5.0768">
        <ele>545.76692746449</ele>
        <time>2012-10-03T09:34:03Z</time>
      </trkpt>
      <trkpt lat="44.68614" lon="5.07688">
        <ele>548.73589368814</ele>
        <time>2012-10-03T09:34:09Z</time>
      </trkpt>
      <trkpt lat="44.68604" lon="5.077">
        <ele>549.52157926171</ele>
        <time>2012-10-03T09:34:15Z</time>
      </trkpt>
      <trkpt lat="44.68598" lon="5.07712">
        <ele>556.77307840413</ele>
        <time>2012-10-03T09:34:21Z</time>
      </trkpt>
      <trkpt lat="44.68591" lon="5.07723">
        <ele>556.42369060133</ele>
        <time>2012-10-03T09:34:26Z</time>
      </trkpt>
      <trkpt lat="44.68582" lon="5.0773">
        <ele>558.08432191596</ele>
        <time>2012-10-03T09:34:32Z</time>
      </trkpt>
      <trkpt lat="44.68574" lon="5.07738">
        <ele>562.8927549605</ele>
        <time>2012-10-03T09:34:38Z</time>
      </trkpt>
      <trkpt lat="44.68573" lon="5.07752">
        <ele>567.5282876743</ele>
        <time>2012-10-03T09:34:43Z</time>
      </trkpt>
      <trkpt lat="44.68571" lon="5.07759">
        <ele>567.87858667641</ele>
        <time>2012-10-03T09:34:49Z</time>
      </trkpt>
      <trkpt lat="44.6857" lon="5.07775">
        <ele>567.26610521777</ele>
        <time>2012-10-03T09:34:55Z</time>
      </trkpt>
      <trkpt lat="44.68573" lon="5.07789">
        <ele>573.74199106233</ele>
        <time>2012-10-03T09:35:01Z</time>
      </trkpt>
      <trkpt lat="44.68573" lon="5.078">
        <ele>576.28079137381</ele>
        <time>2012-10-03T09:35:07Z</time>
      </trkpt>
      <trkpt lat="44.68578" lon="5.07816">
        <ele>578.90788812568</ele>
        <time>2012-10-03T09:35:12Z</time>
      </trkpt>
      <trkpt lat="44.68586" lon="5.07837">
        <ele>575.23014047754</ele>
        <time>2012-10-03T09:35:17Z</time>
      </trkpt>
      <trkpt lat="44.68593" lon="5.07856">
        <ele>577.59452314708</ele>
        <time>2012-10-03T09:35:23Z</time>
      </trkpt>
      <trkpt lat="44.68601" lon="5.07874">
        <ele>575.49306034154</ele>
        <time>2012-10-03T09:35:29Z</time>
      </trkpt>
      <trkpt lat="44.68611" lon="5.07896">
        <ele>575.49306034154</ele>
        <time>2012-10-03T09:35:34Z</time>
      </trkpt>
      <trkpt lat="44.68618" lon="5.07923">
        <ele>572.16644374122</ele>
        <time>2012-10-03T09:35:40Z</time>
      </trkpt>
      <trkpt lat="44.68621" lon="5.07955">
        <ele>569.27829972362</ele>
        <time>2012-10-03T09:35:45Z</time>
      </trkpt>
      <trkpt lat="44.68621" lon="5.07985">
        <ele>566.74122640129</ele>
        <time>2012-10-03T09:35:51Z</time>
      </trkpt>
      <trkpt lat="44.68619" lon="5.08014">
        <ele>563.94214683255</ele>
        <time>2012-10-03T09:35:56Z</time>
      </trkpt>
      <trkpt lat="44.68615" lon="5.08041">
        <ele>556.77307840413</ele>
        <time>2012-10-03T09:36:02Z</time>
      </trkpt>
      <trkpt lat="44.68614" lon="5.08058">
        <ele>555.28759545544</ele>
        <time>2012-10-03T09:36:07Z</time>
      </trkpt>
      <trkpt lat="44.68611" lon="5.08084">
        <ele>557.55937769244</ele>
        <time>2012-10-03T09:36:12Z</time>
      </trkpt>
      <trkpt lat="44.68602" lon="5.08116">
        <ele>554.93772474083</ele>
        <time>2012-10-03T09:36:18Z</time>
      </trkpt>
      <trkpt lat="44.6859" lon="5.08146">
        <ele>551.18109736207</ele>
        <time>2012-10-03T09:36:23Z</time>
      </trkpt>
      <trkpt lat="44.6858" lon="5.08168">
        <ele>550.91933099269</ele>
        <time>2012-10-03T09:36:28Z</time>
      </trkpt>
      <trkpt lat="44.68573" lon="5.08195">
        <ele>535.29578116217</ele>
        <time>2012-10-03T09:36:34Z</time>
      </trkpt>
      <trkpt lat="44.68561" lon="5.08214">
        <ele>545.85431614251</ele>
        <time>2012-10-03T09:36:40Z</time>
      </trkpt>
      <trkpt lat="44.68538" lon="5.08227">
        <ele>543.23564203099</ele>
        <time>2012-10-03T09:36:45Z</time>
      </trkpt>
      <trkpt lat="44.68522" lon="5.08234">
        <ele>540.26826125239</ele>
        <time>2012-10-03T09:36:52Z</time>
      </trkpt>
      <trkpt lat="44.68502" lon="5.08244">
        <ele>539.83209481351</ele>
        <time>2012-10-03T09:36:57Z</time>
      </trkpt>
      <trkpt lat="44.68477" lon="5.08256">
        <ele>529.62872973617</ele>
        <time>2012-10-03T09:37:03Z</time>
      </trkpt>
      <trkpt lat="44.68455" lon="5.08261">
        <ele>535.90636333263</ele>
        <time>2012-10-03T09:37:08Z</time>
      </trkpt>
      <trkpt lat="44.68441" lon="5.08261">
        <ele>534.24930516284</ele>
        <time>2012-10-03T09:37:14Z</time>
      </trkpt>
      <trkpt lat="44.68429" lon="5.0826">
        <ele>534.94712144512</ele>
        <time>2012-10-03T09:37:19Z</time>
      </trkpt>
      <trkpt lat="44.68414" lon="5.08256">
        <ele>533.37750046012</ele>
        <time>2012-10-03T09:37:24Z</time>
      </trkpt>
      <trkpt lat="44.68395" lon="5.08256">
        <ele>532.15667212926</ele>
        <time>2012-10-03T09:37:29Z</time>
      </trkpt>
      <trkpt lat="44.68372" lon="5.08263">
        <ele>532.67979052457</ele>
        <time>2012-10-03T09:37:35Z</time>
      </trkpt>
      <trkpt lat="44.68347" lon="5.08274">
        <ele>529.27972981799</ele>
        <time>2012-10-03T09:37:41Z</time>
      </trkpt>
      <trkpt lat="44.68328" lon="5.08284">
        <ele>525.88132301191</ele>
        <time>2012-10-03T09:37:46Z</time>
      </trkpt>
      <trkpt lat="44.6831" lon="5.08283">
        <ele>524.74859261542</ele>
        <time>2012-10-03T09:37:52Z</time>
      </trkpt>
      <trkpt lat="44.6829" lon="5.08276">
        <ele>521.17678735671</ele>
        <time>2012-10-03T09:37:57Z</time>
      </trkpt>
      <trkpt lat="44.6827" lon="5.08267">
        <ele>522.30912502054</ele>
        <time>2012-10-03T09:38:02Z</time>
      </trkpt>
      <trkpt lat="44.68252" lon="5.08259">
        <ele>519.78359804771</ele>
        <time>2012-10-03T09:38:08Z</time>
      </trkpt>
      <trkpt lat="44.68231" lon="5.08254">
        <ele>521.08960783328</ele>
        <time>2012-10-03T09:38:14Z</time>
      </trkpt>
      <trkpt lat="44.68206" lon="5.08247">
        <ele>522.65735716753</ele>
        <time>2012-10-03T09:38:19Z</time>
      </trkpt>
      <trkpt lat="44.68193" lon="5.08243">
        <ele>521.17678735671</ele>
        <time>2012-10-03T09:38:25Z</time>
      </trkpt>
      <trkpt lat="44.68177" lon="5.08238">
        <ele>524.22587688473</ele>
        <time>2012-10-03T09:38:31Z</time>
      </trkpt>
      <trkpt lat="44.68162" lon="5.08246">
        <ele>523.00613276638</ele>
        <time>2012-10-03T09:38:37Z</time>
      </trkpt>
      <trkpt lat="44.68148" lon="5.08271">
        <ele>520.65425284052</ele>
        <time>2012-10-03T09:38:42Z</time>
      </trkpt>
      <trkpt lat="44.68136" lon="5.08286">
        <ele>523.00613276638</ele>
        <time>2012-10-03T09:38:48Z</time>
      </trkpt>
      <trkpt lat="44.68121" lon="5.08291">
        <ele>521.4383303539</ele>
        <time>2012-10-03T09:38:53Z</time>
      </trkpt>
      <trkpt lat="44.68105" lon="5.08293">
        <ele>525.35854979625</ele>
        <time>2012-10-03T09:39:00Z</time>
      </trkpt>
      <trkpt lat="44.68088" lon="5.08299">
        <ele>524.57417383779</ele>
        <time>2012-10-03T09:39:06Z</time>
      </trkpt>
      <trkpt lat="44.68078" lon="5.08295">
        <ele>523.44158717071</ele>
        <time>2012-10-03T09:39:11Z</time>
      </trkpt>
      <trkpt lat="44.6807" lon="5.08284">
        <ele>522.74454996014</ele>
        <time>2012-10-03T09:39:17Z</time>
      </trkpt>
      <trkpt lat="44.6806" lon="5.08278">
        <ele>522.83174349081</ele>
        <time>2012-10-03T09:39:23Z</time>
      </trkpt>
      <trkpt lat="44.68041" lon="5.08269">
        <ele>518.56437978699</ele>
        <time>2012-10-03T09:39:30Z</time>
      </trkpt>
      <trkpt lat="44.68016" lon="5.08252">
        <ele>519.95740420645</ele>
        <time>2012-10-03T09:39:36Z</time>
      </trkpt>
      <trkpt lat="44.67996" lon="5.08237">
        <ele>517.08439807273</ele>
        <time>2012-10-03T09:39:41Z</time>
      </trkpt>
      <trkpt lat="44.67982" lon="5.08218">
        <ele>518.82585646584</ele>
        <time>2012-10-03T09:39:47Z</time>
      </trkpt>
      <trkpt lat="44.67967" lon="5.08196">
        <ele>517.4324536454</ele>
        <time>2012-10-03T09:39:53Z</time>
      </trkpt>
      <trkpt lat="44.67953" lon="5.0818">
        <ele>515.60409764032</ele>
        <time>2012-10-03T09:39:59Z</time>
      </trkpt>
      <trkpt lat="44.67934" lon="5.08167">
        <ele>513.60236414204</ele>
        <time>2012-10-03T09:40:04Z</time>
      </trkpt>
      <trkpt lat="44.67915" lon="5.08156">
        <ele>516.82296558972</ele>
        <time>2012-10-03T09:40:10Z</time>
      </trkpt>
      <trkpt lat="44.67893" lon="5.0815">
        <ele>517.69390159572</ele>
        <time>2012-10-03T09:40:15Z</time>
      </trkpt>
      <trkpt lat="44.6787" lon="5.08149">
        <ele>516.47493060735</ele>
        <time>2012-10-03T09:40:21Z</time>
      </trkpt>
      <trkpt lat="44.67846" lon="5.08162">
        <ele>517.51960222495</ele>
        <time>2012-10-03T09:40:27Z</time>
      </trkpt>
      <trkpt lat="44.67823" lon="5.08179">
        <ele>515.34323400184</ele>
        <time>2012-10-03T09:40:33Z</time>
      </trkpt>
      <trkpt lat="44.67802" lon="5.08188">
        <ele>515.51749655543</ele>
        <time>2012-10-03T09:40:39Z</time>
      </trkpt>
      <trkpt lat="44.6778" lon="5.08189">
        <ele>513.16732542744</ele>
        <time>2012-10-03T09:40:44Z</time>
      </trkpt>
      <trkpt lat="44.67761" lon="5.08191">
        <ele>515.08184569799</ele>
        <time>2012-10-03T09:40:50Z</time>
      </trkpt>
      <trkpt lat="44.67742" lon="5.08199">
        <ele>515.25610383037</ele>
        <time>2012-10-03T09:40:56Z</time>
      </trkpt>
      <trkpt lat="44.67728" lon="5.08211">
        <ele>514.29878303373</ele>
        <time>2012-10-03T09:41:02Z</time>
      </trkpt>
      <trkpt lat="44.67704" lon="5.08232">
        <ele>513.16732542744</ele>
        <time>2012-10-03T09:41:08Z</time>
      </trkpt>
      <trkpt lat="44.6769" lon="5.08257">
        <ele>500.90350046071</ele>
        <time>2012-10-03T09:41:13Z</time>
      </trkpt>
      <trkpt lat="44.67679" lon="5.08283">
        <ele>505.51173820714</ele>
        <time>2012-10-03T09:41:19Z</time>
      </trkpt>
      <trkpt lat="44.67661" lon="5.08302">
        <ele>503.42493399981</ele>
        <time>2012-10-03T09:41:25Z</time>
      </trkpt>
      <trkpt lat="44.67645" lon="5.08306">
        <ele>497.08007889672</ele>
        <time>2012-10-03T09:41:31Z</time>
      </trkpt>
      <trkpt lat="44.67625" lon="5.08311">
        <ele>496.29785262999</ele>
        <time>2012-10-03T09:41:37Z</time>
      </trkpt>
      <trkpt lat="44.67622" lon="5.08332">
        <ele>495.7765781894</ele>
        <time>2012-10-03T09:41:43Z</time>
      </trkpt>
      <trkpt lat="44.67628" lon="5.08363">
        <ele>488.91550051745</ele>
        <time>2012-10-03T09:41:50Z</time>
      </trkpt>
      <trkpt lat="44.67621" lon="5.084">
        <ele>486.571387195</ele>
        <time>2012-10-03T09:41:55Z</time>
      </trkpt>
      <trkpt lat="44.67621" lon="5.08423">
        <ele>486.48449992967</ele>
        <time>2012-10-03T09:42:00Z</time>
      </trkpt>
      <trkpt lat="44.67622" lon="5.0845">
        <ele>482.23215733548</ele>
        <time>2012-10-03T09:42:07Z</time>
      </trkpt>
      <trkpt lat="44.67617" lon="5.08487">
        <ele>477.54802993286</ele>
        <time>2012-10-03T09:42:13Z</time>
      </trkpt>
      <trkpt lat="44.67617" lon="5.08516">
        <ele>476.68047953392</ele>
        <time>2012-10-03T09:42:19Z</time>
      </trkpt>
      <trkpt lat="44.67616" lon="5.08542">
        <ele>477.20078928588</ele>
        <time>2012-10-03T09:42:24Z</time>
      </trkpt>
      <trkpt lat="44.67607" lon="5.08558">
        <ele>473.38561758434</ele>
        <time>2012-10-03T09:42:30Z</time>
      </trkpt>
      <trkpt lat="44.67579" lon="5.08564">
        <ele>466.97249391128</ele>
        <time>2012-10-03T09:42:37Z</time>
      </trkpt>
      <trkpt lat="44.67555" lon="5.08578">
        <ele>463.85412291317</ele>
        <time>2012-10-03T09:42:42Z</time>
      </trkpt>
      <trkpt lat="44.67546" lon="5.08603">
        <ele>461.60237607898</ele>
        <time>2012-10-03T09:42:48Z</time>
      </trkpt>
      <trkpt lat="44.67545" lon="5.08629">
        <ele>455.62917157876</ele>
        <time>2012-10-03T09:42:54Z</time>
      </trkpt>
      <trkpt lat="44.67548" lon="5.08667">
        <ele>453.46582796924</ele>
        <time>2012-10-03T09:42:59Z</time>
      </trkpt>
      <trkpt lat="44.67557" lon="5.08697">
        <ele>450.87051986538</ele>
        <time>2012-10-03T09:43:05Z</time>
      </trkpt>
      <trkpt lat="44.67573" lon="5.0872">
        <ele>446.45972986172</ele>
        <time>2012-10-03T09:43:11Z</time>
      </trkpt>
      <trkpt lat="44.6759" lon="5.08735">
        <ele>447.15162835104</ele>
        <time>2012-10-03T09:43:16Z</time>
      </trkpt>
      <trkpt lat="44.67605" lon="5.08733">
        <ele>447.58389054111</ele>
        <time>2012-10-03T09:43:22Z</time>
      </trkpt>
      <trkpt lat="44.6762" lon="5.08727">
        <ele>450.00521026484</ele>
        <time>2012-10-03T09:43:29Z</time>
      </trkpt>
      <trkpt lat="44.67635" lon="5.08726">
        <ele>457.18699652371</ele>
        <time>2012-10-03T09:43:36Z</time>
      </trkpt>
      <trkpt lat="44.67647" lon="5.08719">
        <ele>459.69723244638</ele>
        <time>2012-10-03T09:43:42Z</time>
      </trkpt>
      <trkpt lat="44.67656" lon="5.08707">
        <ele>459.87055690131</ele>
        <time>2012-10-03T09:43:48Z</time>
      </trkpt>
      <trkpt lat="44.67661" lon="5.08698">
        <ele>459.26446245108</ele>
        <time>2012-10-03T09:43:54Z</time>
      </trkpt>
      <trkpt lat="44.6767" lon="5.08688">
        <ele>466.79905007935</ele>
        <time>2012-10-03T09:44:01Z</time>
      </trkpt>
      <trkpt lat="44.67682" lon="5.08674">
        <ele>468.53203303564</ele>
        <time>2012-10-03T09:44:08Z</time>
      </trkpt>
      <trkpt lat="44.67693" lon="5.08673">
        <ele>469.39889818249</ele>
        <time>2012-10-03T09:44:14Z</time>
      </trkpt>
      <trkpt lat="44.67708" lon="5.08667">
        <ele>468.09889221067</ele>
        <time>2012-10-03T09:44:21Z</time>
      </trkpt>
      <trkpt lat="44.6772" lon="5.08647">
        <ele>464.54718899973</ele>
        <time>2012-10-03T09:44:26Z</time>
      </trkpt>
      <trkpt lat="44.67721" lon="5.08621">
        <ele>466.79905007935</ele>
        <time>2012-10-03T09:44:32Z</time>
      </trkpt>
      <trkpt lat="44.67724" lon="5.08591">
        <ele>469.57185681167</ele>
        <time>2012-10-03T09:44:38Z</time>
      </trkpt>
      <trkpt lat="44.67727" lon="5.08568">
        <ele>467.6657695754</ele>
        <time>2012-10-03T09:44:43Z</time>
      </trkpt>
      <trkpt lat="44.67729" lon="5.08543">
        <ele>470.35205793432</ele>
        <time>2012-10-03T09:44:50Z</time>
      </trkpt>
      <trkpt lat="44.67739" lon="5.08526">
        <ele>472.778728444</ele>
        <time>2012-10-03T09:44:56Z</time>
      </trkpt>
      <trkpt lat="44.67745" lon="5.0851">
        <ele>475.2932916078</ele>
        <time>2012-10-03T09:45:03Z</time>
      </trkpt>
      <trkpt lat="44.67749" lon="5.08488">
        <ele>476.33379737651</ele>
        <time>2012-10-03T09:45:09Z</time>
      </trkpt>
      <trkpt lat="44.67758" lon="5.0847">
        <ele>477.89475291663</ele>
        <time>2012-10-03T09:45:16Z</time>
      </trkpt>
      <trkpt lat="44.67765" lon="5.08465">
        <ele>478.24148755942</ele>
        <time>2012-10-03T09:45:22Z</time>
      </trkpt>
      <trkpt lat="44.67772" lon="5.08464">
        <ele>481.88528847077</ele>
        <time>2012-10-03T09:45:28Z</time>
      </trkpt>
      <trkpt lat="44.67783" lon="5.08459">
        <ele>486.48449992967</ele>
        <time>2012-10-03T09:45:33Z</time>
      </trkpt>
      <trkpt lat="44.67796" lon="5.08451">
        <ele>488.04699312182</ele>
        <time>2012-10-03T09:45:39Z</time>
      </trkpt>
      <trkpt lat="44.67806" lon="5.08461">
        <ele>486.0506043628</ele>
        <time>2012-10-03T09:45:46Z</time>
      </trkpt>
      <trkpt lat="44.67824" lon="5.08476">
        <ele>486.91841375886</ele>
        <time>2012-10-03T09:45:52Z</time>
      </trkpt>
      <trkpt lat="44.67849" lon="5.08484">
        <ele>485.87683934234</ele>
        <time>2012-10-03T09:45:58Z</time>
      </trkpt>
      <trkpt lat="44.67871" lon="5.08503">
        <ele>484.57528413444</ele>
        <time>2012-10-03T09:46:05Z</time>
      </trkpt>
      <trkpt lat="44.67889" lon="5.08526">
        <ele>483.96773606403</ele>
        <time>2012-10-03T09:46:11Z</time>
      </trkpt>
      <trkpt lat="44.67907" lon="5.08549">
        <ele>476.50687235541</ele>
        <time>2012-10-03T09:46:18Z</time>
      </trkpt>
      <trkpt lat="44.67929" lon="5.08561">
        <ele>481.45105687498</ele>
        <time>2012-10-03T09:46:24Z</time>
      </trkpt>
      <trkpt lat="44.67946" lon="5.08575">
        <ele>479.71643114615</ele>
        <time>2012-10-03T09:46:30Z</time>
      </trkpt>
      <trkpt lat="44.67953" lon="5.08602">
        <ele>479.36911747</ele>
        <time>2012-10-03T09:46:37Z</time>
      </trkpt>
      <trkpt lat="44.6797" lon="5.08629">
        <ele>471.65181893348</ele>
        <time>2012-10-03T09:46:43Z</time>
      </trkpt>
      <trkpt lat="44.67995" lon="5.08643">
        <ele>470.52503254932</ele>
        <time>2012-10-03T09:46:50Z</time>
      </trkpt>
      <trkpt lat="44.68015" lon="5.08655">
        <ele>471.82534439574</ele>
        <time>2012-10-03T09:46:57Z</time>
      </trkpt>
      <trkpt lat="44.68031" lon="5.08677">
        <ele>468.1856246922</ele>
        <time>2012-10-03T09:47:03Z</time>
      </trkpt>
      <trkpt lat="44.68048" lon="5.08692">
        <ele>465.67279371993</ele>
        <time>2012-10-03T09:47:08Z</time>
      </trkpt>
      <trkpt lat="44.68065" lon="5.08709">
        <ele>461.77573254819</ele>
        <time>2012-10-03T09:47:14Z</time>
      </trkpt>
      <trkpt lat="44.68083" lon="5.08727">
        <ele>458.74505674604</ele>
        <time>2012-10-03T09:47:20Z</time>
      </trkpt>
      <trkpt lat="44.68106" lon="5.08741">
        <ele>450.87051986538</ele>
        <time>2012-10-03T09:47:26Z</time>
      </trkpt>
      <trkpt lat="44.68124" lon="5.08758">
        <ele>446.80540942521</ele>
        <time>2012-10-03T09:47:33Z</time>
      </trkpt>
      <trkpt lat="44.68141" lon="5.08767">
        <ele>438.24862758908</ele>
        <time>2012-10-03T09:47:39Z</time>
      </trkpt>
      <trkpt lat="44.68164" lon="5.08781">
        <ele>446.45972986172</ele>
        <time>2012-10-03T09:47:46Z</time>
      </trkpt>
      <trkpt lat="44.6819" lon="5.08783">
        <ele>443.69312734229</ele>
        <time>2012-10-03T09:47:53Z</time>
      </trkpt>
      <trkpt lat="44.6821" lon="5.08768">
        <ele>434.18901222839</ele>
        <time>2012-10-03T09:47:59Z</time>
      </trkpt>
      <trkpt lat="44.68228" lon="5.08761">
        <ele>434.4478309532</ele>
        <time>2012-10-03T09:48:04Z</time>
      </trkpt>
      <trkpt lat="44.68235" lon="5.08773">
        <ele>438.76700253198</ele>
        <time>2012-10-03T09:48:10Z</time>
      </trkpt>
      <trkpt lat="44.68244" lon="5.08796">
        <ele>435.74360353216</ele>
        <time>2012-10-03T09:48:16Z</time>
      </trkpt>
      <trkpt lat="44.68262" lon="5.08814">
        <ele>437.81675624198</ele>
        <time>2012-10-03T09:48:22Z</time>
      </trkpt>
      <trkpt lat="44.68288" lon="5.08827">
        <ele>434.18901222839</ele>
        <time>2012-10-03T09:48:27Z</time>
      </trkpt>
      <trkpt lat="44.68308" lon="5.08843">
        <ele>429.7853444975</ele>
        <time>2012-10-03T09:48:32Z</time>
      </trkpt>
      <trkpt lat="44.68325" lon="5.08853">
        <ele>428.9218009074</ele>
        <time>2012-10-03T09:48:38Z</time>
      </trkpt>
      <trkpt lat="44.68344" lon="5.08865">
        <ele>423.83052258104</ele>
        <time>2012-10-03T09:48:44Z</time>
      </trkpt>
      <trkpt lat="44.68361" lon="5.08871">
        <ele>422.27772417583</ele>
        <time>2012-10-03T09:48:50Z</time>
      </trkpt>
      <trkpt lat="44.6838" lon="5.08877">
        <ele>416.06833862969</ele>
        <time>2012-10-03T09:48:55Z</time>
      </trkpt>
      <trkpt lat="44.68393" lon="5.08898">
        <ele>415.55110219555</ele>
        <time>2012-10-03T09:49:01Z</time>
      </trkpt>
      <trkpt lat="44.68405" lon="5.08919">
        <ele>412.44822754237</ele>
        <time>2012-10-03T09:49:06Z</time>
      </trkpt>
      <trkpt lat="44.6842" lon="5.08927">
        <ele>410.12142028976</ele>
        <time>2012-10-03T09:49:12Z</time>
      </trkpt>
      <trkpt lat="44.68435" lon="5.08934">
        <ele>409.43252506132</ele>
        <time>2012-10-03T09:49:18Z</time>
      </trkpt>
      <trkpt lat="44.68461" lon="5.08948">
        <ele>407.27884067034</ele>
        <time>2012-10-03T09:49:23Z</time>
      </trkpt>
      <trkpt lat="44.6848" lon="5.08965">
        <ele>404.00605822685</ele>
        <time>2012-10-03T09:49:29Z</time>
      </trkpt>
      <trkpt lat="44.68496" lon="5.08957">
        <ele>405.12560529078</ele>
        <time>2012-10-03T09:49:36Z</time>
      </trkpt>
      <trkpt lat="44.68508" lon="5.08928">
        <ele>406.67582642674</ele>
        <time>2012-10-03T09:49:42Z</time>
      </trkpt>
      <trkpt lat="44.68525" lon="5.08914">
        <ele>407.27884067034</ele>
        <time>2012-10-03T09:49:48Z</time>
      </trkpt>
      <trkpt lat="44.68548" lon="5.08906">
        <ele>407.36453779238</ele>
        <time>2012-10-03T09:49:53Z</time>
      </trkpt>
      <trkpt lat="44.68565" lon="5.08898">
        <ele>409.17380681479</ele>
        <time>2012-10-03T09:49:59Z</time>
      </trkpt>
      <trkpt lat="44.68579" lon="5.08891">
        <ele>408.74314996096</ele>
        <time>2012-10-03T09:50:05Z</time>
      </trkpt>
      <trkpt lat="44.686" lon="5.08879">
        <ele>405.72800336086</ele>
        <time>2012-10-03T09:50:12Z</time>
      </trkpt>
      <trkpt lat="44.68622" lon="5.08874">
        <ele>409.17380681479</ele>
        <time>2012-10-03T09:50:18Z</time>
      </trkpt>
      <trkpt lat="44.68639" lon="5.08872">
        <ele>407.02017636885</ele>
        <time>2012-10-03T09:50:23Z</time>
      </trkpt>
      <trkpt lat="44.68651" lon="5.08869">
        <ele>409.17380681479</ele>
        <time>2012-10-03T09:50:29Z</time>
      </trkpt>
      <trkpt lat="44.6867" lon="5.08868">
        <ele>410.03517440126</ele>
        <time>2012-10-03T09:50:34Z</time>
      </trkpt>
      <trkpt lat="44.68689" lon="5.08872">
        <ele>408.82938506028</ele>
        <time>2012-10-03T09:50:40Z</time>
      </trkpt>
      <trkpt lat="44.68704" lon="5.08872">
        <ele>409.17380681479</ele>
        <time>2012-10-03T09:50:45Z</time>
      </trkpt>
      <trkpt lat="44.68709" lon="5.08884">
        <ele>405.12560529078</ele>
        <time>2012-10-03T09:50:51Z</time>
      </trkpt>
      <trkpt lat="44.68715" lon="5.08908">
        <ele>403.40323502484</ele>
        <time>2012-10-03T09:50:58Z</time>
      </trkpt>
      <trkpt lat="44.68723" lon="5.08935">
        <ele>400.56197811237</ele>
        <time>2012-10-03T09:51:04Z</time>
      </trkpt>
      <trkpt lat="44.68742" lon="5.08936">
        <ele>395.57025829239</ele>
        <time>2012-10-03T09:51:09Z</time>
      </trkpt>
      <trkpt lat="44.68761" lon="5.08927">
        <ele>392.4733794027</ele>
        <time>2012-10-03T09:51:15Z</time>
      </trkpt>
      <trkpt lat="44.68773" lon="5.0894">
        <ele>389.29135566354</ele>
        <time>2012-10-03T09:51:20Z</time>
      </trkpt>
      <trkpt lat="44.68782" lon="5.08973">
        <ele>386.88423002228</ele>
        <time>2012-10-03T09:51:25Z</time>
      </trkpt>
      <trkpt lat="44.68793" lon="5.08997">
        <ele>384.39110836979</ele>
        <time>2012-10-03T09:51:31Z</time>
      </trkpt>
      <trkpt lat="44.68799" lon="5.09022">
        <ele>378.54837535559</ele>
        <time>2012-10-03T09:51:37Z</time>
      </trkpt>
      <trkpt lat="44.68803" lon="5.09054">
        <ele>376.40111881173</ele>
        <time>2012-10-03T09:51:44Z</time>
      </trkpt>
      <trkpt lat="44.6881" lon="5.09088">
        <ele>372.10794358353</ele>
        <time>2012-10-03T09:51:51Z</time>
      </trkpt>
      <trkpt lat="44.68824" lon="5.0912">
        <ele>369.61890734857</ele>
        <time>2012-10-03T09:51:56Z</time>
      </trkpt>
      <trkpt lat="44.68841" lon="5.09143">
        <ele>366.18626759035</ele>
        <time>2012-10-03T09:52:01Z</time>
      </trkpt>
      <trkpt lat="44.68854" lon="5.09163">
        <ele>355.12462598654</ele>
        <time>2012-10-03T09:52:07Z</time>
      </trkpt>
      <trkpt lat="44.68851" lon="5.09184">
        <ele>364.21330369302</ele>
        <time>2012-10-03T09:52:13Z</time>
      </trkpt>
      <trkpt lat="44.68838" lon="5.09204">
        <ele>361.29695999681</ele>
        <time>2012-10-03T09:52:19Z</time>
      </trkpt>
      <trkpt lat="44.68823" lon="5.09231">
        <ele>362.32604066945</ele>
        <time>2012-10-03T09:52:26Z</time>
      </trkpt>
      <trkpt lat="44.68812" lon="5.09267">
        <ele>357.43855785895</ele>
        <time>2012-10-03T09:52:32Z</time>
      </trkpt>
      <trkpt lat="44.68798" lon="5.09282">
        <ele>356.324164734</ele>
        <time>2012-10-03T09:52:38Z</time>
      </trkpt>
      <trkpt lat="44.68781" lon="5.09276">
        <ele>355.2104148048</ele>
        <time>2012-10-03T09:52:43Z</time>
      </trkpt>
      <trkpt lat="44.68762" lon="5.09271">
        <ele>355.2104148048</ele>
        <time>2012-10-03T09:52:49Z</time>
      </trkpt>
      <trkpt lat="44.68749" lon="5.09265">
        <ele>353.15324858425</ele>
        <time>2012-10-03T09:52:55Z</time>
      </trkpt>
      <trkpt lat="44.68733" lon="5.0926">
        <ele>348.27062126212</ele>
        <time>2012-10-03T09:53:00Z</time>
      </trkpt>
      <trkpt lat="44.68716" lon="5.09261">
        <ele>347.585313754</ele>
        <time>2012-10-03T09:53:06Z</time>
      </trkpt>
      <trkpt lat="44.68707" lon="5.09276">
        <ele>344.75935744459</ele>
        <time>2012-10-03T09:53:11Z</time>
      </trkpt>
      <trkpt lat="44.68707" lon="5.09297">
        <ele>335.34577162904</ele>
        <time>2012-10-03T09:53:17Z</time>
      </trkpt>
      <trkpt lat="44.68703" lon="5.09331">
        <ele>338.16863461168</ele>
        <time>2012-10-03T09:53:23Z</time>
      </trkpt>
      <trkpt lat="44.687" lon="5.09356">
        <ele>334.40446639963</ele>
        <time>2012-10-03T09:53:28Z</time>
      </trkpt>
      <trkpt lat="44.68702" lon="5.09385">
        <ele>327.82085711679</ele>
        <time>2012-10-03T09:53:34Z</time>
      </trkpt>
      <trkpt lat="44.68704" lon="5.09412">
        <ele>326.62409751602</ele>
        <time>2012-10-03T09:53:39Z</time>
      </trkpt>
      <trkpt lat="44.68694" lon="5.09426">
        <ele>323.54779813679</ele>
        <time>2012-10-03T09:53:45Z</time>
      </trkpt>
      <trkpt lat="44.68679" lon="5.09437">
        <ele>319.95941639108</ele>
        <time>2012-10-03T09:53:51Z</time>
      </trkpt>
      <trkpt lat="44.68662" lon="5.09467">
        <ele>317.82428886386</ele>
        <time>2012-10-03T09:53:56Z</time>
      </trkpt>
      <trkpt lat="44.6866" lon="5.09508">
        <ele>315.09242680049</ele>
        <time>2012-10-03T09:54:02Z</time>
      </trkpt>
      <trkpt lat="44.68654" lon="5.09531">
        <ele>311.76326086845</ele>
        <time>2012-10-03T09:54:08Z</time>
      </trkpt>
      <trkpt lat="44.68643" lon="5.09556">
        <ele>303.4877082359</ele>
        <time>2012-10-03T09:54:14Z</time>
      </trkpt>
      <trkpt lat="44.68646" lon="5.09592">
        <ele>307.83788812822</ele>
        <time>2012-10-03T09:54:20Z</time>
      </trkpt>
      <trkpt lat="44.68654" lon="5.09635">
        <ele>304.25546855545</ele>
        <time>2012-10-03T09:54:26Z</time>
      </trkpt>
      <trkpt lat="44.68642" lon="5.09655">
        <ele>301.18580960975</ele>
        <time>2012-10-03T09:54:32Z</time>
      </trkpt>
      <trkpt lat="44.68623" lon="5.09668">
        <ele>288.40483136098</ele>
        <time>2012-10-03T09:54:38Z</time>
      </trkpt>
      <trkpt lat="44.68606" lon="5.0968">
        <ele>295.4746485104</ele>
        <time>2012-10-03T09:54:43Z</time>
      </trkpt>
      <trkpt lat="44.68588" lon="5.09693">
        <ele>293.17453052717</ele>
        <time>2012-10-03T09:54:49Z</time>
      </trkpt>
      <trkpt lat="44.68567" lon="5.09709">
        <ele>289.6819076372</ele>
        <time>2012-10-03T09:54:55Z</time>
      </trkpt>
      <trkpt lat="44.68547" lon="5.09721">
        <ele>287.46778521039</ele>
        <time>2012-10-03T09:55:01Z</time>
      </trkpt>
      <trkpt lat="44.68528" lon="5.09733">
        <ele>291.55596562956</ele>
        <time>2012-10-03T09:55:08Z</time>
      </trkpt>
      <trkpt lat="44.68507" lon="5.09751">
        <ele>281.93506863309</ele>
        <time>2012-10-03T09:55:15Z</time>
      </trkpt>
      <trkpt lat="44.68496" lon="5.0978">
        <ele>291.89650356342</ele>
        <time>2012-10-03T09:55:20Z</time>
      </trkpt>
      <trkpt lat="44.68494" lon="5.09808">
        <ele>290.53389917008</ele>
        <time>2012-10-03T09:55:25Z</time>
      </trkpt>
      <trkpt lat="44.68505" lon="5.09837">
        <ele>287.80870844014</ele>
        <time>2012-10-03T09:55:31Z</time>
      </trkpt>
      <trkpt lat="44.68517" lon="5.0987">
        <ele>281.93506863309</ele>
        <time>2012-10-03T09:55:38Z</time>
      </trkpt>
      <trkpt lat="44.68534" lon="5.09906">
        <ele>279.04181769938</ele>
        <time>2012-10-03T09:55:44Z</time>
      </trkpt>
      <trkpt lat="44.68546" lon="5.09937">
        <ele>278.53138897433</ele>
        <time>2012-10-03T09:55:49Z</time>
      </trkpt>
      <trkpt lat="44.68554" lon="5.09962">
        <ele>277.34031336093</ele>
        <time>2012-10-03T09:55:55Z</time>
      </trkpt>
      <trkpt lat="44.6856" lon="5.09984">
        <ele>276.74534606268</ele>
        <time>2012-10-03T09:56:01Z</time>
      </trkpt>
      <trkpt lat="44.68567" lon="5.10011">
        <ele>277.42545981835</ele>
        <time>2012-10-03T09:56:07Z</time>
      </trkpt>
      <trkpt lat="44.68583" lon="5.10024">
        <ele>277.93583404793</ele>
        <time>2012-10-03T09:56:12Z</time>
      </trkpt>
      <trkpt lat="44.68602" lon="5.10033">
        <ele>279.29730113538</ele>
        <time>2012-10-03T09:56:18Z</time>
      </trkpt>
      <trkpt lat="44.68617" lon="5.1004">
        <ele>276.91511073418</ele>
        <time>2012-10-03T09:56:23Z</time>
      </trkpt>
      <trkpt lat="44.68634" lon="5.10043">
        <ele>280.82877602358</ele>
        <time>2012-10-03T09:56:29Z</time>
      </trkpt>
      <trkpt lat="44.68648" lon="5.10048">
        <ele>280.82877602358</ele>
        <time>2012-10-03T09:56:35Z</time>
      </trkpt>
      <trkpt lat="44.68638" lon="5.10053">
        <ele>284.14800841168</ele>
        <time>2012-10-03T09:56:41Z</time>
      </trkpt>
      <trkpt lat="44.6862" lon="5.10053">
        <ele>279.63743622067</ele>
        <time>2012-10-03T09:56:46Z</time>
      </trkpt>
      <trkpt lat="44.68606" lon="5.10053">
        <ele>287.04216662525</ele>
        <time>2012-10-03T09:56:52Z</time>
      </trkpt>
      <trkpt lat="44.68588" lon="5.10061">
        <ele>286.44612213488</ele>
        <time>2012-10-03T09:56:59Z</time>
      </trkpt>
      <trkpt lat="44.68568" lon="5.10073">
        <ele>286.78701173299</ele>
        <time>2012-10-03T09:57:05Z</time>
      </trkpt>
      <trkpt lat="44.68555" lon="5.10082">
        <ele>289.17095427245</ele>
        <time>2012-10-03T09:57:10Z</time>
      </trkpt>
      <trkpt lat="44.68543" lon="5.10092">
        <ele>289.34144252138</ele>
        <time>2012-10-03T09:57:15Z</time>
      </trkpt>
      <trkpt lat="44.68529" lon="5.10099">
        <ele>291.98176977626</ele>
        <time>2012-10-03T09:57:21Z</time>
      </trkpt>
      <trkpt lat="44.68515" lon="5.10104">
        <ele>292.6634048036</ele>
        <time>2012-10-03T09:57:28Z</time>
      </trkpt>
      <trkpt lat="44.68499" lon="5.10112">
        <ele>294.11157321541</ele>
        <time>2012-10-03T09:57:33Z</time>
      </trkpt>
      <trkpt lat="44.68499" lon="5.10128">
        <ele>296.9237303492</ele>
        <time>2012-10-03T09:57:38Z</time>
      </trkpt>
      <trkpt lat="44.68514" lon="5.1014">
        <ele>295.64524057802</ele>
        <time>2012-10-03T09:57:44Z</time>
      </trkpt>
      <trkpt lat="44.68516" lon="5.10148">
        <ele>299.82146196922</ele>
        <time>2012-10-03T09:57:50Z</time>
      </trkpt>
      <trkpt lat="44.68506" lon="5.10153">
        <ele>302.63517061443</ele>
        <time>2012-10-03T09:57:55Z</time>
      </trkpt>
      <trkpt lat="44.68495" lon="5.10156">
        <ele>303.99936861495</ele>
        <time>2012-10-03T09:58:00Z</time>
      </trkpt>
      <trkpt lat="44.68481" lon="5.10159">
        <ele>306.2170294116</ele>
        <time>2012-10-03T09:58:06Z</time>
      </trkpt>
      <trkpt lat="44.68469" lon="5.10167">
        <ele>306.1316458834</ele>
        <time>2012-10-03T09:58:12Z</time>
      </trkpt>
      <trkpt lat="44.6846" lon="5.10176">
        <ele>310.73919764799</ele>
        <time>2012-10-03T09:58:18Z</time>
      </trkpt>
      <trkpt lat="44.68455" lon="5.10185">
        <ele>312.53111430475</ele>
        <time>2012-10-03T09:58:25Z</time>
      </trkpt>
      <trkpt lat="44.68445" lon="5.10194">
        <ele>315.17736319464</ele>
        <time>2012-10-03T09:58:31Z</time>
      </trkpt>
      <trkpt lat="44.68437" lon="5.10204">
        <ele>317.05604263763</ele>
        <time>2012-10-03T09:58:37Z</time>
      </trkpt>
      <trkpt lat="44.68431" lon="5.10213">
        <ele>320.64289622858</ele>
        <time>2012-10-03T09:58:44Z</time>
      </trkpt>
      <trkpt lat="44.6842" lon="5.10222">
        <ele>319.44696646011</ele>
        <time>2012-10-03T09:58:51Z</time>
      </trkpt>
      <trkpt lat="44.6842" lon="5.10241">
        <ele>324.57312964511</ele>
        <time>2012-10-03T09:58:58Z</time>
      </trkpt>
      <trkpt lat="44.68435" lon="5.10259">
        <ele>324.31652647056</ele>
        <time>2012-10-03T09:59:04Z</time>
      </trkpt>
      <trkpt lat="44.68446" lon="5.10271">
        <ele>328.07702547897</ele>
        <time>2012-10-03T09:59:10Z</time>
      </trkpt>
      <trkpt lat="44.68457" lon="5.10275">
        <ele>329.01775515814</ele>
        <time>2012-10-03T09:59:17Z</time>
      </trkpt>
      <trkpt lat="44.6847" lon="5.10276">
        <ele>329.1883791886</ele>
        <time>2012-10-03T09:59:23Z</time>
      </trkpt>
      <trkpt lat="44.68486" lon="5.10273">
        <ele>327.73529516644</ele>
        <time>2012-10-03T09:59:28Z</time>
      </trkpt>
      <trkpt lat="44.68507" lon="5.10272">
        <ele>326.96579112963</ele>
        <time>2012-10-03T09:59:34Z</time>
      </trkpt>
      <trkpt lat="44.68526" lon="5.10267">
        <ele>330.72725330541</ele>
        <time>2012-10-03T09:59:40Z</time>
      </trkpt>
      <trkpt lat="44.68541" lon="5.10261">
        <ele>331.06960434114</ele>
        <time>2012-10-03T09:59:46Z</time>
      </trkpt>
      <trkpt lat="44.6856" lon="5.10256">
        <ele>330.98401552015</ele>
        <time>2012-10-03T09:59:52Z</time>
      </trkpt>
      <trkpt lat="44.68577" lon="5.10252">
        <ele>329.95804855034</ele>
        <time>2012-10-03T09:59:57Z</time>
      </trkpt>
      <trkpt lat="44.68591" lon="5.10254">
        <ele>334.66131989527</ele>
        <time>2012-10-03T10:00:03Z</time>
      </trkpt>
      <trkpt lat="44.68604" lon="5.1026">
        <ele>337.74092605531</ele>
        <time>2012-10-03T10:00:09Z</time>
      </trkpt>
      <trkpt lat="44.68617" lon="5.10261">
        <ele>334.5757013548</ele>
        <time>2012-10-03T10:00:14Z</time>
      </trkpt>
      <trkpt lat="44.68631" lon="5.10261">
        <ele>339.36673050429</ele>
        <time>2012-10-03T10:00:19Z</time>
      </trkpt>
      <trkpt lat="44.68642" lon="5.10269">
        <ele>339.70936757555</ele>
        <time>2012-10-03T10:00:24Z</time>
      </trkpt>
      <trkpt lat="44.68654" lon="5.10279">
        <ele>339.19541622469</ele>
        <time>2012-10-03T10:00:29Z</time>
      </trkpt>
      <trkpt lat="44.68666" lon="5.10283">
        <ele>340.22282211694</ele>
        <time>2012-10-03T10:00:35Z</time>
      </trkpt>
      <trkpt lat="44.68681" lon="5.10285">
        <ele>339.36673050429</ele>
        <time>2012-10-03T10:00:40Z</time>
      </trkpt>
      <trkpt lat="44.68697" lon="5.10283">
        <ele>342.0198525347</ele>
        <time>2012-10-03T10:00:46Z</time>
      </trkpt>
      <trkpt lat="44.68717" lon="5.10271">
        <ele>342.36257750466</ele>
        <time>2012-10-03T10:00:52Z</time>
      </trkpt>
      <trkpt lat="44.68737" lon="5.10267">
        <ele>342.53342178443</ele>
        <time>2012-10-03T10:00:58Z</time>
      </trkpt>
      <trkpt lat="44.68757" lon="5.10266">
        <ele>341.93417306658</ele>
        <time>2012-10-03T10:01:04Z</time>
      </trkpt>
      <trkpt lat="44.68773" lon="5.1026">
        <ele>342.10553271255</ele>
        <time>2012-10-03T10:01:10Z</time>
      </trkpt>
      <trkpt lat="44.68788" lon="5.10259">
        <ele>341.24980766857</ele>
        <time>2012-10-03T10:01:15Z</time>
      </trkpt>
      <trkpt lat="44.68803" lon="5.10263">
        <ele>342.10553271255</ele>
        <time>2012-10-03T10:01:21Z</time>
      </trkpt>
      <trkpt lat="44.68817" lon="5.10265">
        <ele>341.16413457882</ele>
        <time>2012-10-03T10:01:26Z</time>
      </trkpt>
      <trkpt lat="44.68835" lon="5.1027">
        <ele>340.47929776563</ele>
        <time>2012-10-03T10:01:31Z</time>
      </trkpt>
      <trkpt lat="44.68854" lon="5.10277">
        <ele>339.6237072437</ele>
        <time>2012-10-03T10:01:36Z</time>
      </trkpt>
      <trkpt lat="44.68881" lon="5.10293">
        <ele>337.65528202263</ele>
        <time>2012-10-03T10:01:43Z</time>
      </trkpt>
      <trkpt lat="44.68903" lon="5.10314">
        <ele>337.82657079706</ele>
        <time>2012-10-03T10:01:49Z</time>
      </trkpt>
      <trkpt lat="44.68922" lon="5.10332">
        <ele>330.64166731653</ele>
        <time>2012-10-03T10:01:55Z</time>
      </trkpt>
      <trkpt lat="44.68945" lon="5.10344">
        <ele>335.26014742366</ele>
        <time>2012-10-03T10:02:02Z</time>
      </trkpt>
      <trkpt lat="44.68974" lon="5.10357">
        <ele>331.83889174613</ele>
        <time>2012-10-03T10:02:08Z</time>
      </trkpt>
      <trkpt lat="44.68994" lon="5.10363">
        <ele>328.50433468121</ele>
        <time>2012-10-03T10:02:14Z</time>
      </trkpt>
      <trkpt lat="44.69009" lon="5.10369">
        <ele>326.36744347464</ele>
        <time>2012-10-03T10:02:20Z</time>
      </trkpt>
      <trkpt lat="44.69028" lon="5.10371">
        <ele>313.89713822556</ele>
        <time>2012-10-03T10:02:26Z</time>
      </trkpt>
      <trkpt lat="44.69045" lon="5.1038">
        <ele>323.12069357294</ele>
        <time>2012-10-03T10:02:33Z</time>
      </trkpt>
      <trkpt lat="44.69067" lon="5.10389">
        <ele>323.97492033028</ele>
        <time>2012-10-03T10:02:39Z</time>
      </trkpt>
      <trkpt lat="44.69089" lon="5.1039">
        <ele>324.40206015503</ele>
        <time>2012-10-03T10:02:46Z</time>
      </trkpt>
      <trkpt lat="44.6911" lon="5.10395">
        <ele>326.70965027789</ele>
        <time>2012-10-03T10:02:53Z</time>
      </trkpt>
      <trkpt lat="44.69127" lon="5.10403">
        <ele>329.95804855034</ele>
        <time>2012-10-03T10:02:59Z</time>
      </trkpt>
      <trkpt lat="44.69139" lon="5.10409">
        <ele>333.5493781564</ele>
        <time>2012-10-03T10:03:04Z</time>
      </trkpt>
      <trkpt lat="44.69151" lon="5.10412">
        <ele>333.72059895852</ele>
        <time>2012-10-03T10:03:09Z</time>
      </trkpt>
      <trkpt lat="44.69166" lon="5.10414">
        <ele>334.83255910205</ele>
        <time>2012-10-03T10:03:15Z</time>
      </trkpt>
      <trkpt lat="44.69186" lon="5.1042">
        <ele>333.5493781564</ele>
        <time>2012-10-03T10:03:21Z</time>
      </trkpt>
      <trkpt lat="44.69208" lon="5.10419">
        <ele>332.43755591899</ele>
        <time>2012-10-03T10:03:27Z</time>
      </trkpt>
      <trkpt lat="44.69232" lon="5.10417">
        <ele>320.89940832089</ele>
        <time>2012-10-03T10:03:33Z</time>
      </trkpt>
      <trkpt lat="44.69255" lon="5.10417">
        <ele>328.07702547897</ele>
        <time>2012-10-03T10:03:39Z</time>
      </trkpt>
      <trkpt lat="44.69284" lon="5.10414">
        <ele>325.51301918843</ele>
        <time>2012-10-03T10:03:45Z</time>
      </trkpt>
      <trkpt lat="44.69311" lon="5.10402">
        <ele>322.77860544036</ele>
        <time>2012-10-03T10:03:52Z</time>
      </trkpt>
      <trkpt lat="44.69329" lon="5.10395">
        <ele>322.69308517422</ele>
        <time>2012-10-03T10:03:57Z</time>
      </trkpt>
      <trkpt lat="44.69346" lon="5.10392">
        <ele>319.19101165347</ele>
        <time>2012-10-03T10:04:03Z</time>
      </trkpt>
      <trkpt lat="44.69366" lon="5.10382">
        <ele>318.16621325756</ele>
        <time>2012-10-03T10:04:09Z</time>
      </trkpt>
      <trkpt lat="44.69389" lon="5.10375">
        <ele>316.03145562098</ele>
        <time>2012-10-03T10:04:15Z</time>
      </trkpt>
      <trkpt lat="44.69411" lon="5.10371">
        <ele>312.53111430475</ele>
        <time>2012-10-03T10:04:20Z</time>
      </trkpt>
      <trkpt lat="44.69432" lon="5.10369">
        <ele>311.08036717129</ele>
        <time>2012-10-03T10:04:27Z</time>
      </trkpt>
      <trkpt lat="44.69447" lon="5.10369">
        <ele>309.2032927618</ele>
        <time>2012-10-03T10:04:33Z</time>
      </trkpt>
      <trkpt lat="44.69466" lon="5.10366">
        <ele>309.62982334694</ele>
        <time>2012-10-03T10:04:39Z</time>
      </trkpt>
      <trkpt lat="44.69491" lon="5.10345">
        <ele>312.44619962402</ele>
        <time>2012-10-03T10:04:45Z</time>
      </trkpt>
      <trkpt lat="44.69511" lon="5.10317">
        <ele>310.73919764799</ele>
        <time>2012-10-03T10:04:51Z</time>
      </trkpt>
      <trkpt lat="44.69523" lon="5.10293">
        <ele>308.77625898962</ele>
        <time>2012-10-03T10:04:56Z</time>
      </trkpt>
      <trkpt lat="44.69537" lon="5.10269">
        <ele>305.36426700053</ele>
        <time>2012-10-03T10:05:02Z</time>
      </trkpt>
      <trkpt lat="44.69552" lon="5.10243">
        <ele>303.99936861495</ele>
        <time>2012-10-03T10:05:08Z</time>
      </trkpt>
      <trkpt lat="44.6957" lon="5.10227">
        <ele>302.37911075347</ele>
        <time>2012-10-03T10:05:14Z</time>
      </trkpt>
      <trkpt lat="44.69586" lon="5.10213">
        <ele>295.4746485104</ele>
        <time>2012-10-03T10:05:19Z</time>
      </trkpt>
      <trkpt lat="44.69605" lon="5.10198">
        <ele>293.25980726441</ele>
        <time>2012-10-03T10:05:25Z</time>
      </trkpt>
      <trkpt lat="44.69622" lon="5.10185">
        <ele>292.91870452912</ele>
        <time>2012-10-03T10:05:31Z</time>
      </trkpt>
      <trkpt lat="44.69641" lon="5.10168">
        <ele>289.08571120051</ele>
        <time>2012-10-03T10:05:37Z</time>
      </trkpt>
      <trkpt lat="44.69655" lon="5.10163">
        <ele>285.33934759632</ele>
        <time>2012-10-03T10:05:42Z</time>
      </trkpt>
      <trkpt lat="44.69674" lon="5.10156">
        <ele>282.61604269487</ele>
        <time>2012-10-03T10:05:48Z</time>
      </trkpt>
      <trkpt lat="44.69699" lon="5.10139">
        <ele>279.29730113538</ele>
        <time>2012-10-03T10:05:54Z</time>
      </trkpt>
      <trkpt lat="44.69722" lon="5.10127">
        <ele>270.87797471695</ele>
        <time>2012-10-03T10:06:00Z</time>
      </trkpt>
      <trkpt lat="44.69743" lon="5.10118">
        <ele>269.5176136223</ele>
        <time>2012-10-03T10:06:06Z</time>
      </trkpt>
      <trkpt lat="44.69764" lon="5.10099">
        <ele>270.28285961254</ele>
        <time>2012-10-03T10:06:12Z</time>
      </trkpt>
      <trkpt lat="44.69781" lon="5.1007">
        <ele>263.73936707419</ele>
        <time>2012-10-03T10:06:18Z</time>
      </trkpt>
      <trkpt lat="44.69788" lon="5.10038">
        <ele>266.79794582937</ele>
        <time>2012-10-03T10:06:23Z</time>
      </trkpt>
      <trkpt lat="44.69789" lon="5.1001">
        <ele>266.28812000006</ele>
        <time>2012-10-03T10:06:30Z</time>
      </trkpt>
      <trkpt lat="44.69797" lon="5.09986">
        <ele>261.8708527723</ele>
        <time>2012-10-03T10:06:35Z</time>
      </trkpt>
      <trkpt lat="44.69815" lon="5.09964">
        <ele>258.38876657616</ele>
        <time>2012-10-03T10:06:41Z</time>
      </trkpt>
      <trkpt lat="44.69834" lon="5.09936">
        <ele>254.65348530769</ele>
        <time>2012-10-03T10:06:47Z</time>
      </trkpt>
      <trkpt lat="44.69853" lon="5.09916">
        <ele>241.59085033881</ele>
        <time>2012-10-03T10:06:52Z</time>
      </trkpt>
      <trkpt lat="44.69875" lon="5.09901">
        <ele>249.4774060762</ele>
        <time>2012-10-03T10:06:58Z</time>
      </trkpt>
      <trkpt lat="44.69891" lon="5.09891">
        <ele>245.15166082435</ele>
        <time>2012-10-03T10:07:04Z</time>
      </trkpt>
      <trkpt lat="44.69913" lon="5.09877">
        <ele>242.69296151281</ele>
        <time>2012-10-03T10:07:10Z</time>
      </trkpt>
      <trkpt lat="44.69931" lon="5.09861">
        <ele>234.21851554607</ele>
        <time>2012-10-03T10:07:15Z</time>
      </trkpt>
      <trkpt lat="44.69946" lon="5.09855">
        <ele>235.74334265913</ele>
        <time>2012-10-03T10:07:21Z</time>
      </trkpt>
      <trkpt lat="44.69951" lon="5.09833">
        <ele>232.52435384256</ele>
        <time>2012-10-03T10:07:27Z</time>
      </trkpt>
      <trkpt lat="44.69949" lon="5.09802">
        <ele>232.27002084102</ele>
        <time>2012-10-03T10:07:33Z</time>
      </trkpt>
      <trkpt lat="44.69948" lon="5.09786">
        <ele>220.08124191662</ele>
        <time>2012-10-03T10:07:38Z</time>
      </trkpt>
    </trkseg>
  </trk>
</gpx>